<?xml version="1.0" encoding="UTF-8" standalone="no" ?>
<gpx xmlns="http://www.topografix.com/GPX/1/1" xmlns:xsi="http://www.w3.org/2001/XMLSchema-instance" xsi:schemaLocation="http://www.topografix.com/GPX/1/1 http://www.topografix.com/GPX/1/1/gpx.xsd" version="1.1" creator="VisuGPX - https://www.visugpx.com">
  <metadata>
    <name>RSPFY-Rochers d'Angennes</name>
    <desc><![CDATA[Marche nordique au départ du parking des Rochers d'Angennes près de Poigny-La-Forêt.]]></desc>
  </metadata>
  <trk>
    <name><![CDATA[2022-04-19 09:02]]></name>
    <desc><![CDATA[<p>Heure de départ: 09:02 19 avr. 2022<br/>Heure d'arrivée: 11:34 19 avr. 2022<br/>Distance: 11,7 km (02:32)<br/>Temps déplacement: 02:10<br/>Vitesse moyenne: 4,62 km/h<br/>Vitesse moyenne mouv.: 5,4 km/h<br/>Vitesse Max.: 12,2 km/h<br/>Altitude minimale: 124 m<br/>Altitude maximale: 175 m<br/>Vitesse de montée: 185,2 m/h<br/>Vitesse de descente: -199,4 m/h<br/>Gain d'altitude: 237 m<br/>Perte d'altitude: -240 m<br/>Temps de montée: 01:16<br/>Temps de descente: 01:12<br/></p><hr align="center" width="480" style="height: 2px; width: 517px"/>]]></desc>
    <trkseg>
      <trkpt lat="48.67254" lon="1.73768">
        <ele>139.9</ele>
        <time>2022-04-19T07:02:11Z</time>
      </trkpt>
      <trkpt lat="48.67254" lon="1.73754">
        <ele>139.9</ele>
        <time>2022-04-19T07:05:19Z</time>
      </trkpt>
      <trkpt lat="48.67252" lon="1.7374">
        <ele>139.5</ele>
        <time>2022-04-19T07:05:32Z</time>
      </trkpt>
      <trkpt lat="48.67248" lon="1.73727">
        <ele>139.9</ele>
        <time>2022-04-19T07:05:43Z</time>
      </trkpt>
      <trkpt lat="48.67249" lon="1.73713">
        <ele>139.2</ele>
        <time>2022-04-19T07:05:54Z</time>
      </trkpt>
      <trkpt lat="48.67252" lon="1.73699">
        <ele>138.9</ele>
        <time>2022-04-19T07:06:03Z</time>
      </trkpt>
      <trkpt lat="48.67254" lon="1.73685">
        <ele>139.1</ele>
        <time>2022-04-19T07:06:10Z</time>
      </trkpt>
      <trkpt lat="48.67253" lon="1.73671">
        <ele>139.6</ele>
        <time>2022-04-19T07:06:17Z</time>
      </trkpt>
      <trkpt lat="48.67251" lon="1.73657">
        <ele>139.3</ele>
        <time>2022-04-19T07:06:25Z</time>
      </trkpt>
      <trkpt lat="48.67247" lon="1.73643">
        <ele>139.3</ele>
        <time>2022-04-19T07:06:31Z</time>
      </trkpt>
      <trkpt lat="48.67246" lon="1.73629">
        <ele>139.5</ele>
        <time>2022-04-19T07:06:37Z</time>
      </trkpt>
      <trkpt lat="48.67242" lon="1.73614">
        <ele>140.5</ele>
        <time>2022-04-19T07:06:45Z</time>
      </trkpt>
      <trkpt lat="48.67237" lon="1.73602">
        <ele>141.3</ele>
        <time>2022-04-19T07:06:51Z</time>
      </trkpt>
      <trkpt lat="48.67233" lon="1.73589">
        <ele>141.4</ele>
        <time>2022-04-19T07:06:58Z</time>
      </trkpt>
      <trkpt lat="48.67232" lon="1.73574">
        <ele>140.8</ele>
        <time>2022-04-19T07:07:06Z</time>
      </trkpt>
      <trkpt lat="48.67229" lon="1.73559">
        <ele>140.4</ele>
        <time>2022-04-19T07:07:14Z</time>
      </trkpt>
      <trkpt lat="48.67225" lon="1.73546">
        <ele>140</ele>
        <time>2022-04-19T07:07:20Z</time>
      </trkpt>
      <trkpt lat="48.67222" lon="1.73533">
        <ele>139.6</ele>
        <time>2022-04-19T07:07:26Z</time>
      </trkpt>
      <trkpt lat="48.6722" lon="1.73519">
        <ele>139.5</ele>
        <time>2022-04-19T07:07:33Z</time>
      </trkpt>
      <trkpt lat="48.67214" lon="1.73506">
        <ele>140.4</ele>
        <time>2022-04-19T07:07:39Z</time>
      </trkpt>
      <trkpt lat="48.67208" lon="1.73494">
        <ele>141</ele>
        <time>2022-04-19T07:07:45Z</time>
      </trkpt>
      <trkpt lat="48.67202" lon="1.73482">
        <ele>140.7</ele>
        <time>2022-04-19T07:07:52Z</time>
      </trkpt>
      <trkpt lat="48.67198" lon="1.7347">
        <ele>139.7</ele>
        <time>2022-04-19T07:07:59Z</time>
      </trkpt>
      <trkpt lat="48.67193" lon="1.73458">
        <ele>139.9</ele>
        <time>2022-04-19T07:08:05Z</time>
      </trkpt>
      <trkpt lat="48.67187" lon="1.73446">
        <ele>140.7</ele>
        <time>2022-04-19T07:08:12Z</time>
      </trkpt>
      <trkpt lat="48.67181" lon="1.73434">
        <ele>141</ele>
        <time>2022-04-19T07:08:19Z</time>
      </trkpt>
      <trkpt lat="48.67174" lon="1.73421">
        <ele>140.7</ele>
        <time>2022-04-19T07:08:25Z</time>
      </trkpt>
      <trkpt lat="48.67169" lon="1.73408">
        <ele>140.2</ele>
        <time>2022-04-19T07:08:31Z</time>
      </trkpt>
      <trkpt lat="48.67164" lon="1.73395">
        <ele>140.4</ele>
        <time>2022-04-19T07:08:39Z</time>
      </trkpt>
      <trkpt lat="48.67159" lon="1.73382">
        <ele>140.9</ele>
        <time>2022-04-19T07:08:46Z</time>
      </trkpt>
      <trkpt lat="48.67153" lon="1.7337">
        <ele>140.7</ele>
        <time>2022-04-19T07:08:54Z</time>
      </trkpt>
      <trkpt lat="48.67145" lon="1.73362">
        <ele>140.5</ele>
        <time>2022-04-19T07:09:02Z</time>
      </trkpt>
      <trkpt lat="48.67136" lon="1.73359">
        <ele>141.4</ele>
        <time>2022-04-19T07:09:09Z</time>
      </trkpt>
      <trkpt lat="48.67126" lon="1.73357">
        <ele>142.6</ele>
        <time>2022-04-19T07:09:16Z</time>
      </trkpt>
      <trkpt lat="48.67117" lon="1.73351">
        <ele>142.7</ele>
        <time>2022-04-19T07:09:22Z</time>
      </trkpt>
      <trkpt lat="48.6711" lon="1.73343">
        <ele>141.6</ele>
        <time>2022-04-19T07:09:28Z</time>
      </trkpt>
      <trkpt lat="48.67102" lon="1.73334">
        <ele>140.1</ele>
        <time>2022-04-19T07:09:35Z</time>
      </trkpt>
      <trkpt lat="48.67093" lon="1.73328">
        <ele>140.3</ele>
        <time>2022-04-19T07:09:43Z</time>
      </trkpt>
      <trkpt lat="48.67084" lon="1.73328">
        <ele>141.2</ele>
        <time>2022-04-19T07:09:52Z</time>
      </trkpt>
      <trkpt lat="48.67074" lon="1.73324">
        <ele>140.6</ele>
        <time>2022-04-19T07:09:59Z</time>
      </trkpt>
      <trkpt lat="48.67065" lon="1.73329">
        <ele>141.2</ele>
        <time>2022-04-19T07:10:06Z</time>
      </trkpt>
      <trkpt lat="48.67056" lon="1.73334">
        <ele>142.2</ele>
        <time>2022-04-19T07:10:13Z</time>
      </trkpt>
      <trkpt lat="48.67048" lon="1.7334">
        <ele>141.9</ele>
        <time>2022-04-19T07:10:23Z</time>
      </trkpt>
      <trkpt lat="48.6704" lon="1.73349">
        <ele>141.1</ele>
        <time>2022-04-19T07:10:29Z</time>
      </trkpt>
      <trkpt lat="48.67033" lon="1.7336">
        <ele>140</ele>
        <time>2022-04-19T07:10:37Z</time>
      </trkpt>
      <trkpt lat="48.67026" lon="1.7337">
        <ele>140</ele>
        <time>2022-04-19T07:10:43Z</time>
      </trkpt>
      <trkpt lat="48.67018" lon="1.73379">
        <ele>140.7</ele>
        <time>2022-04-19T07:10:48Z</time>
      </trkpt>
      <trkpt lat="48.6701" lon="1.73384">
        <ele>139.9</ele>
        <time>2022-04-19T07:10:54Z</time>
      </trkpt>
      <trkpt lat="48.67001" lon="1.7339">
        <ele>138.4</ele>
        <time>2022-04-19T07:10:59Z</time>
      </trkpt>
      <trkpt lat="48.66991" lon="1.73389">
        <ele>139.3</ele>
        <time>2022-04-19T07:11:06Z</time>
      </trkpt>
      <trkpt lat="48.66981" lon="1.73386">
        <ele>140.3</ele>
        <time>2022-04-19T07:11:13Z</time>
      </trkpt>
      <trkpt lat="48.66971" lon="1.73386">
        <ele>141.3</ele>
        <time>2022-04-19T07:11:19Z</time>
      </trkpt>
      <trkpt lat="48.66962" lon="1.73388">
        <ele>140.8</ele>
        <time>2022-04-19T07:11:27Z</time>
      </trkpt>
      <trkpt lat="48.66953" lon="1.73391">
        <ele>140.3</ele>
        <time>2022-04-19T07:11:35Z</time>
      </trkpt>
      <trkpt lat="48.66943" lon="1.73393">
        <ele>139.8</ele>
        <time>2022-04-19T07:11:44Z</time>
      </trkpt>
      <trkpt lat="48.66936" lon="1.73402">
        <ele>141.5</ele>
        <time>2022-04-19T07:11:50Z</time>
      </trkpt>
      <trkpt lat="48.66927" lon="1.73402">
        <ele>141.7</ele>
        <time>2022-04-19T07:11:57Z</time>
      </trkpt>
      <trkpt lat="48.66917" lon="1.73402">
        <ele>141.9</ele>
        <time>2022-04-19T07:12:05Z</time>
      </trkpt>
      <trkpt lat="48.66908" lon="1.73407">
        <ele>142.8</ele>
        <time>2022-04-19T07:12:12Z</time>
      </trkpt>
      <trkpt lat="48.669" lon="1.73415">
        <ele>143.4</ele>
        <time>2022-04-19T07:12:19Z</time>
      </trkpt>
      <trkpt lat="48.66892" lon="1.73423">
        <ele>143.6</ele>
        <time>2022-04-19T07:12:28Z</time>
      </trkpt>
      <trkpt lat="48.66884" lon="1.73431">
        <ele>144.7</ele>
        <time>2022-04-19T07:12:36Z</time>
      </trkpt>
      <trkpt lat="48.66876" lon="1.7344">
        <ele>146.1</ele>
        <time>2022-04-19T07:12:44Z</time>
      </trkpt>
      <trkpt lat="48.66869" lon="1.7345">
        <ele>147.2</ele>
        <time>2022-04-19T07:12:50Z</time>
      </trkpt>
      <trkpt lat="48.66861" lon="1.73459">
        <ele>148</ele>
        <time>2022-04-19T07:12:57Z</time>
      </trkpt>
      <trkpt lat="48.66854" lon="1.73468">
        <ele>148.8</ele>
        <time>2022-04-19T07:13:04Z</time>
      </trkpt>
      <trkpt lat="48.66846" lon="1.73477">
        <ele>149.7</ele>
        <time>2022-04-19T07:13:14Z</time>
      </trkpt>
      <trkpt lat="48.66838" lon="1.73483">
        <ele>150.9</ele>
        <time>2022-04-19T07:13:21Z</time>
      </trkpt>
      <trkpt lat="48.66831" lon="1.73493">
        <ele>152</ele>
        <time>2022-04-19T07:13:29Z</time>
      </trkpt>
      <trkpt lat="48.66824" lon="1.73503">
        <ele>152.6</ele>
        <time>2022-04-19T07:13:36Z</time>
      </trkpt>
      <trkpt lat="48.66818" lon="1.73512">
        <ele>152.9</ele>
        <time>2022-04-19T07:13:42Z</time>
      </trkpt>
      <trkpt lat="48.66809" lon="1.73519">
        <ele>153.7</ele>
        <time>2022-04-19T07:13:49Z</time>
      </trkpt>
      <trkpt lat="48.66804" lon="1.73508">
        <ele>154.2</ele>
        <time>2022-04-19T07:13:59Z</time>
      </trkpt>
      <trkpt lat="48.66806" lon="1.73494">
        <ele>154.1</ele>
        <time>2022-04-19T07:14:07Z</time>
      </trkpt>
      <trkpt lat="48.66809" lon="1.7348">
        <ele>154.3</ele>
        <time>2022-04-19T07:14:15Z</time>
      </trkpt>
      <trkpt lat="48.66809" lon="1.73465">
        <ele>154.5</ele>
        <time>2022-04-19T07:14:22Z</time>
      </trkpt>
      <trkpt lat="48.6681" lon="1.73452">
        <ele>154.3</ele>
        <time>2022-04-19T07:14:33Z</time>
      </trkpt>
      <trkpt lat="48.66808" lon="1.73436">
        <ele>153.8</ele>
        <time>2022-04-19T07:14:43Z</time>
      </trkpt>
      <trkpt lat="48.66804" lon="1.73423">
        <ele>152.9</ele>
        <time>2022-04-19T07:14:50Z</time>
      </trkpt>
      <trkpt lat="48.66802" lon="1.73409">
        <ele>151.8</ele>
        <time>2022-04-19T07:14:59Z</time>
      </trkpt>
      <trkpt lat="48.66798" lon="1.73396">
        <ele>151.3</ele>
        <time>2022-04-19T07:15:05Z</time>
      </trkpt>
      <trkpt lat="48.66794" lon="1.73384">
        <ele>150.8</ele>
        <time>2022-04-19T07:15:12Z</time>
      </trkpt>
      <trkpt lat="48.6679" lon="1.73368">
        <ele>149.9</ele>
        <time>2022-04-19T07:15:19Z</time>
      </trkpt>
      <trkpt lat="48.66785" lon="1.73355">
        <ele>149.3</ele>
        <time>2022-04-19T07:15:26Z</time>
      </trkpt>
      <trkpt lat="48.66782" lon="1.73342">
        <ele>148.4</ele>
        <time>2022-04-19T07:15:33Z</time>
      </trkpt>
      <trkpt lat="48.66775" lon="1.7333">
        <ele>147.9</ele>
        <time>2022-04-19T07:15:40Z</time>
      </trkpt>
      <trkpt lat="48.6677" lon="1.73317">
        <ele>147.4</ele>
        <time>2022-04-19T07:15:47Z</time>
      </trkpt>
      <trkpt lat="48.66765" lon="1.73304">
        <ele>146.8</ele>
        <time>2022-04-19T07:15:54Z</time>
      </trkpt>
      <trkpt lat="48.66759" lon="1.73294">
        <ele>146.8</ele>
        <time>2022-04-19T07:16:01Z</time>
      </trkpt>
      <trkpt lat="48.66754" lon="1.73282">
        <ele>146.8</ele>
        <time>2022-04-19T07:16:09Z</time>
      </trkpt>
      <trkpt lat="48.66749" lon="1.73269">
        <ele>146.3</ele>
        <time>2022-04-19T07:16:16Z</time>
      </trkpt>
      <trkpt lat="48.66745" lon="1.73256">
        <ele>145.5</ele>
        <time>2022-04-19T07:16:23Z</time>
      </trkpt>
      <trkpt lat="48.66741" lon="1.73243">
        <ele>144.5</ele>
        <time>2022-04-19T07:16:31Z</time>
      </trkpt>
      <trkpt lat="48.66739" lon="1.73228">
        <ele>143.2</ele>
        <time>2022-04-19T07:16:38Z</time>
      </trkpt>
      <trkpt lat="48.66736" lon="1.73214">
        <ele>142</ele>
        <time>2022-04-19T07:16:45Z</time>
      </trkpt>
      <trkpt lat="48.66733" lon="1.732">
        <ele>141.1</ele>
        <time>2022-04-19T07:16:51Z</time>
      </trkpt>
      <trkpt lat="48.66728" lon="1.73187">
        <ele>140.6</ele>
        <time>2022-04-19T07:16:58Z</time>
      </trkpt>
      <trkpt lat="48.66725" lon="1.73174">
        <ele>140.1</ele>
        <time>2022-04-19T07:17:05Z</time>
      </trkpt>
      <trkpt lat="48.6672" lon="1.73162">
        <ele>139.4</ele>
        <time>2022-04-19T07:17:15Z</time>
      </trkpt>
      <trkpt lat="48.66711" lon="1.73162">
        <ele>139.1</ele>
        <time>2022-04-19T07:17:27Z</time>
      </trkpt>
      <trkpt lat="48.66702" lon="1.73167">
        <ele>139.3</ele>
        <time>2022-04-19T07:17:34Z</time>
      </trkpt>
      <trkpt lat="48.66695" lon="1.73179">
        <ele>139.9</ele>
        <time>2022-04-19T07:17:43Z</time>
      </trkpt>
      <trkpt lat="48.66688" lon="1.73189">
        <ele>139.8</ele>
        <time>2022-04-19T07:17:50Z</time>
      </trkpt>
      <trkpt lat="48.66683" lon="1.73201">
        <ele>139.9</ele>
        <time>2022-04-19T07:17:59Z</time>
      </trkpt>
      <trkpt lat="48.66679" lon="1.73214">
        <ele>140.2</ele>
        <time>2022-04-19T07:18:05Z</time>
      </trkpt>
      <trkpt lat="48.66675" lon="1.73227">
        <ele>140.1</ele>
        <time>2022-04-19T07:18:14Z</time>
      </trkpt>
      <trkpt lat="48.66671" lon="1.73241">
        <ele>139.5</ele>
        <time>2022-04-19T07:18:20Z</time>
      </trkpt>
      <trkpt lat="48.66667" lon="1.73255">
        <ele>139.2</ele>
        <time>2022-04-19T07:18:25Z</time>
      </trkpt>
      <trkpt lat="48.66662" lon="1.73267">
        <ele>139.3</ele>
        <time>2022-04-19T07:18:32Z</time>
      </trkpt>
      <trkpt lat="48.66656" lon="1.7328">
        <ele>139.2</ele>
        <time>2022-04-19T07:18:39Z</time>
      </trkpt>
      <trkpt lat="48.66652" lon="1.73295">
        <ele>139</ele>
        <time>2022-04-19T07:18:46Z</time>
      </trkpt>
      <trkpt lat="48.66648" lon="1.73308">
        <ele>138.6</ele>
        <time>2022-04-19T07:18:51Z</time>
      </trkpt>
      <trkpt lat="48.66643" lon="1.73319">
        <ele>138.2</ele>
        <time>2022-04-19T07:18:58Z</time>
      </trkpt>
      <trkpt lat="48.66638" lon="1.73333">
        <ele>138</ele>
        <time>2022-04-19T07:19:06Z</time>
      </trkpt>
      <trkpt lat="48.66634" lon="1.73345">
        <ele>138.2</ele>
        <time>2022-04-19T07:19:12Z</time>
      </trkpt>
      <trkpt lat="48.6663" lon="1.73359">
        <ele>138.3</ele>
        <time>2022-04-19T07:19:19Z</time>
      </trkpt>
      <trkpt lat="48.66626" lon="1.73371">
        <ele>138.6</ele>
        <time>2022-04-19T07:19:26Z</time>
      </trkpt>
      <trkpt lat="48.66621" lon="1.73383">
        <ele>139.2</ele>
        <time>2022-04-19T07:19:31Z</time>
      </trkpt>
      <trkpt lat="48.66615" lon="1.73395">
        <ele>139.8</ele>
        <time>2022-04-19T07:19:36Z</time>
      </trkpt>
      <trkpt lat="48.66609" lon="1.73407">
        <ele>140.1</ele>
        <time>2022-04-19T07:19:41Z</time>
      </trkpt>
      <trkpt lat="48.66605" lon="1.73421">
        <ele>140.4</ele>
        <time>2022-04-19T07:19:47Z</time>
      </trkpt>
      <trkpt lat="48.66602" lon="1.73435">
        <ele>140.4</ele>
        <time>2022-04-19T07:19:53Z</time>
      </trkpt>
      <trkpt lat="48.666" lon="1.73449">
        <ele>140.4</ele>
        <time>2022-04-19T07:20:04Z</time>
      </trkpt>
      <trkpt lat="48.66593" lon="1.73459">
        <ele>140.6</ele>
        <time>2022-04-19T07:21:38Z</time>
      </trkpt>
      <trkpt lat="48.66585" lon="1.73466">
        <ele>140.9</ele>
        <time>2022-04-19T07:21:47Z</time>
      </trkpt>
      <trkpt lat="48.66576" lon="1.73468">
        <ele>141.6</ele>
        <time>2022-04-19T07:21:55Z</time>
      </trkpt>
      <trkpt lat="48.66566" lon="1.73467">
        <ele>142.4</ele>
        <time>2022-04-19T07:22:03Z</time>
      </trkpt>
      <trkpt lat="48.66561" lon="1.73455">
        <ele>143.1</ele>
        <time>2022-04-19T07:22:11Z</time>
      </trkpt>
      <trkpt lat="48.66557" lon="1.73441">
        <ele>144</ele>
        <time>2022-04-19T07:22:19Z</time>
      </trkpt>
      <trkpt lat="48.66554" lon="1.73427">
        <ele>144.7</ele>
        <time>2022-04-19T07:22:27Z</time>
      </trkpt>
      <trkpt lat="48.66549" lon="1.73415">
        <ele>145.8</ele>
        <time>2022-04-19T07:22:36Z</time>
      </trkpt>
      <trkpt lat="48.66545" lon="1.73402">
        <ele>146.6</ele>
        <time>2022-04-19T07:22:43Z</time>
      </trkpt>
      <trkpt lat="48.66541" lon="1.7339">
        <ele>147.6</ele>
        <time>2022-04-19T07:22:51Z</time>
      </trkpt>
      <trkpt lat="48.66538" lon="1.73376">
        <ele>147.9</ele>
        <time>2022-04-19T07:22:59Z</time>
      </trkpt>
      <trkpt lat="48.66535" lon="1.73363">
        <ele>148.3</ele>
        <time>2022-04-19T07:23:06Z</time>
      </trkpt>
      <trkpt lat="48.6653" lon="1.73349">
        <ele>148.8</ele>
        <time>2022-04-19T07:23:13Z</time>
      </trkpt>
      <trkpt lat="48.66524" lon="1.73337">
        <ele>149.3</ele>
        <time>2022-04-19T07:23:20Z</time>
      </trkpt>
      <trkpt lat="48.66519" lon="1.73324">
        <ele>148.9</ele>
        <time>2022-04-19T07:23:27Z</time>
      </trkpt>
      <trkpt lat="48.66516" lon="1.73311">
        <ele>148.2</ele>
        <time>2022-04-19T07:23:35Z</time>
      </trkpt>
      <trkpt lat="48.66511" lon="1.73298">
        <ele>147.8</ele>
        <time>2022-04-19T07:23:42Z</time>
      </trkpt>
      <trkpt lat="48.66506" lon="1.73286">
        <ele>147.3</ele>
        <time>2022-04-19T07:23:51Z</time>
      </trkpt>
      <trkpt lat="48.66505" lon="1.73271">
        <ele>146.4</ele>
        <time>2022-04-19T07:24:00Z</time>
      </trkpt>
      <trkpt lat="48.66502" lon="1.73257">
        <ele>145.4</ele>
        <time>2022-04-19T07:24:07Z</time>
      </trkpt>
      <trkpt lat="48.66496" lon="1.73245">
        <ele>145</ele>
        <time>2022-04-19T07:24:13Z</time>
      </trkpt>
      <trkpt lat="48.66491" lon="1.73234">
        <ele>145</ele>
        <time>2022-04-19T07:24:22Z</time>
      </trkpt>
      <trkpt lat="48.66485" lon="1.73222">
        <ele>145.1</ele>
        <time>2022-04-19T07:24:29Z</time>
      </trkpt>
      <trkpt lat="48.66481" lon="1.73208">
        <ele>145.7</ele>
        <time>2022-04-19T07:24:35Z</time>
      </trkpt>
      <trkpt lat="48.66476" lon="1.73197">
        <ele>146.5</ele>
        <time>2022-04-19T07:24:41Z</time>
      </trkpt>
      <trkpt lat="48.6647" lon="1.73185">
        <ele>147.7</ele>
        <time>2022-04-19T07:24:48Z</time>
      </trkpt>
      <trkpt lat="48.66467" lon="1.73171">
        <ele>148.8</ele>
        <time>2022-04-19T07:24:55Z</time>
      </trkpt>
      <trkpt lat="48.66462" lon="1.73158">
        <ele>150.5</ele>
        <time>2022-04-19T07:25:03Z</time>
      </trkpt>
      <trkpt lat="48.66457" lon="1.73146">
        <ele>152.2</ele>
        <time>2022-04-19T07:25:09Z</time>
      </trkpt>
      <trkpt lat="48.66454" lon="1.73133">
        <ele>153.4</ele>
        <time>2022-04-19T07:25:15Z</time>
      </trkpt>
      <trkpt lat="48.66449" lon="1.73119">
        <ele>154.3</ele>
        <time>2022-04-19T07:25:21Z</time>
      </trkpt>
      <trkpt lat="48.66444" lon="1.73106">
        <ele>154.9</ele>
        <time>2022-04-19T07:25:27Z</time>
      </trkpt>
      <trkpt lat="48.66439" lon="1.73093">
        <ele>154.9</ele>
        <time>2022-04-19T07:25:34Z</time>
      </trkpt>
      <trkpt lat="48.66435" lon="1.7308">
        <ele>154.7</ele>
        <time>2022-04-19T07:25:42Z</time>
      </trkpt>
      <trkpt lat="48.66434" lon="1.73065">
        <ele>153.5</ele>
        <time>2022-04-19T07:25:52Z</time>
      </trkpt>
      <trkpt lat="48.66429" lon="1.73052">
        <ele>152.8</ele>
        <time>2022-04-19T07:26:00Z</time>
      </trkpt>
      <trkpt lat="48.66423" lon="1.73041">
        <ele>152.1</ele>
        <time>2022-04-19T07:26:07Z</time>
      </trkpt>
      <trkpt lat="48.66418" lon="1.73028">
        <ele>150.9</ele>
        <time>2022-04-19T07:26:14Z</time>
      </trkpt>
      <trkpt lat="48.66414" lon="1.73015">
        <ele>150.6</ele>
        <time>2022-04-19T07:26:20Z</time>
      </trkpt>
      <trkpt lat="48.66411" lon="1.73002">
        <ele>149.9</ele>
        <time>2022-04-19T07:26:27Z</time>
      </trkpt>
      <trkpt lat="48.66405" lon="1.72987">
        <ele>148.7</ele>
        <time>2022-04-19T07:26:34Z</time>
      </trkpt>
      <trkpt lat="48.664" lon="1.72975">
        <ele>147.6</ele>
        <time>2022-04-19T07:26:40Z</time>
      </trkpt>
      <trkpt lat="48.66395" lon="1.72963">
        <ele>146.5</ele>
        <time>2022-04-19T07:26:47Z</time>
      </trkpt>
      <trkpt lat="48.66391" lon="1.7295">
        <ele>145.4</ele>
        <time>2022-04-19T07:26:54Z</time>
      </trkpt>
      <trkpt lat="48.66385" lon="1.72939">
        <ele>144.8</ele>
        <time>2022-04-19T07:27:00Z</time>
      </trkpt>
      <trkpt lat="48.6638" lon="1.72926">
        <ele>144.5</ele>
        <time>2022-04-19T07:27:06Z</time>
      </trkpt>
      <trkpt lat="48.66376" lon="1.72913">
        <ele>144.5</ele>
        <time>2022-04-19T07:27:13Z</time>
      </trkpt>
      <trkpt lat="48.66369" lon="1.729">
        <ele>144.9</ele>
        <time>2022-04-19T07:27:20Z</time>
      </trkpt>
      <trkpt lat="48.66365" lon="1.72886">
        <ele>145</ele>
        <time>2022-04-19T07:27:26Z</time>
      </trkpt>
      <trkpt lat="48.66362" lon="1.72872">
        <ele>145</ele>
        <time>2022-04-19T07:27:33Z</time>
      </trkpt>
      <trkpt lat="48.6636" lon="1.72858">
        <ele>145.2</ele>
        <time>2022-04-19T07:27:41Z</time>
      </trkpt>
      <trkpt lat="48.66357" lon="1.72843">
        <ele>145.8</ele>
        <time>2022-04-19T07:27:48Z</time>
      </trkpt>
      <trkpt lat="48.66353" lon="1.7283">
        <ele>146.4</ele>
        <time>2022-04-19T07:27:54Z</time>
      </trkpt>
      <trkpt lat="48.66348" lon="1.72818">
        <ele>147.1</ele>
        <time>2022-04-19T07:28:00Z</time>
      </trkpt>
      <trkpt lat="48.66344" lon="1.72805">
        <ele>147.7</ele>
        <time>2022-04-19T07:28:07Z</time>
      </trkpt>
      <trkpt lat="48.66339" lon="1.72793">
        <ele>148.6</ele>
        <time>2022-04-19T07:28:14Z</time>
      </trkpt>
      <trkpt lat="48.66334" lon="1.7278">
        <ele>149.8</ele>
        <time>2022-04-19T07:28:22Z</time>
      </trkpt>
      <trkpt lat="48.66329" lon="1.72767">
        <ele>151.3</ele>
        <time>2022-04-19T07:28:28Z</time>
      </trkpt>
      <trkpt lat="48.66326" lon="1.72754">
        <ele>152.6</ele>
        <time>2022-04-19T07:28:35Z</time>
      </trkpt>
      <trkpt lat="48.6632" lon="1.72741">
        <ele>154.2</ele>
        <time>2022-04-19T07:28:44Z</time>
      </trkpt>
      <trkpt lat="48.66316" lon="1.72729">
        <ele>155.7</ele>
        <time>2022-04-19T07:28:51Z</time>
      </trkpt>
      <trkpt lat="48.66313" lon="1.72714">
        <ele>156.8</ele>
        <time>2022-04-19T07:28:59Z</time>
      </trkpt>
      <trkpt lat="48.66308" lon="1.727">
        <ele>157.6</ele>
        <time>2022-04-19T07:29:07Z</time>
      </trkpt>
      <trkpt lat="48.66305" lon="1.72687">
        <ele>158</ele>
        <time>2022-04-19T07:29:15Z</time>
      </trkpt>
      <trkpt lat="48.663" lon="1.72675">
        <ele>158.2</ele>
        <time>2022-04-19T07:29:21Z</time>
      </trkpt>
      <trkpt lat="48.66296" lon="1.72662">
        <ele>158.2</ele>
        <time>2022-04-19T07:29:29Z</time>
      </trkpt>
      <trkpt lat="48.6629" lon="1.7265">
        <ele>157.9</ele>
        <time>2022-04-19T07:29:35Z</time>
      </trkpt>
      <trkpt lat="48.66285" lon="1.72638">
        <ele>157.7</ele>
        <time>2022-04-19T07:29:41Z</time>
      </trkpt>
      <trkpt lat="48.66279" lon="1.72626">
        <ele>157.5</ele>
        <time>2022-04-19T07:29:47Z</time>
      </trkpt>
      <trkpt lat="48.66275" lon="1.72613">
        <ele>157.2</ele>
        <time>2022-04-19T07:29:53Z</time>
      </trkpt>
      <trkpt lat="48.66272" lon="1.72598">
        <ele>156.7</ele>
        <time>2022-04-19T07:30:01Z</time>
      </trkpt>
      <trkpt lat="48.66267" lon="1.72585">
        <ele>156.5</ele>
        <time>2022-04-19T07:30:07Z</time>
      </trkpt>
      <trkpt lat="48.66261" lon="1.72574">
        <ele>155.9</ele>
        <time>2022-04-19T07:30:12Z</time>
      </trkpt>
      <trkpt lat="48.66256" lon="1.72561">
        <ele>155.1</ele>
        <time>2022-04-19T07:30:19Z</time>
      </trkpt>
      <trkpt lat="48.66251" lon="1.72547">
        <ele>154.4</ele>
        <time>2022-04-19T07:30:27Z</time>
      </trkpt>
      <trkpt lat="48.66246" lon="1.72536">
        <ele>153.8</ele>
        <time>2022-04-19T07:30:34Z</time>
      </trkpt>
      <trkpt lat="48.66242" lon="1.72524">
        <ele>152.8</ele>
        <time>2022-04-19T07:30:41Z</time>
      </trkpt>
      <trkpt lat="48.66237" lon="1.72511">
        <ele>151.7</ele>
        <time>2022-04-19T07:30:48Z</time>
      </trkpt>
      <trkpt lat="48.66235" lon="1.72497">
        <ele>150.3</ele>
        <time>2022-04-19T07:30:56Z</time>
      </trkpt>
      <trkpt lat="48.6623" lon="1.72485">
        <ele>149.2</ele>
        <time>2022-04-19T07:31:03Z</time>
      </trkpt>
      <trkpt lat="48.66226" lon="1.72471">
        <ele>147.9</ele>
        <time>2022-04-19T07:31:10Z</time>
      </trkpt>
      <trkpt lat="48.66225" lon="1.72456">
        <ele>147.4</ele>
        <time>2022-04-19T07:31:17Z</time>
      </trkpt>
      <trkpt lat="48.66225" lon="1.7244">
        <ele>146.6</ele>
        <time>2022-04-19T07:31:24Z</time>
      </trkpt>
      <trkpt lat="48.66223" lon="1.72425">
        <ele>145.6</ele>
        <time>2022-04-19T07:31:31Z</time>
      </trkpt>
      <trkpt lat="48.6622" lon="1.72411">
        <ele>144.9</ele>
        <time>2022-04-19T07:31:38Z</time>
      </trkpt>
      <trkpt lat="48.66218" lon="1.72397">
        <ele>144.4</ele>
        <time>2022-04-19T07:31:47Z</time>
      </trkpt>
      <trkpt lat="48.66215" lon="1.72382">
        <ele>144.2</ele>
        <time>2022-04-19T07:31:54Z</time>
      </trkpt>
      <trkpt lat="48.66213" lon="1.72368">
        <ele>144.1</ele>
        <time>2022-04-19T07:32:00Z</time>
      </trkpt>
      <trkpt lat="48.66214" lon="1.72353">
        <ele>143.8</ele>
        <time>2022-04-19T07:32:07Z</time>
      </trkpt>
      <trkpt lat="48.66214" lon="1.7234">
        <ele>143.5</ele>
        <time>2022-04-19T07:32:13Z</time>
      </trkpt>
      <trkpt lat="48.66217" lon="1.72326">
        <ele>143</ele>
        <time>2022-04-19T07:32:19Z</time>
      </trkpt>
      <trkpt lat="48.66216" lon="1.72311">
        <ele>142.6</ele>
        <time>2022-04-19T07:32:26Z</time>
      </trkpt>
      <trkpt lat="48.66212" lon="1.72296">
        <ele>142.6</ele>
        <time>2022-04-19T07:32:33Z</time>
      </trkpt>
      <trkpt lat="48.66211" lon="1.72283">
        <ele>142.5</ele>
        <time>2022-04-19T07:32:40Z</time>
      </trkpt>
      <trkpt lat="48.66206" lon="1.7227">
        <ele>142.5</ele>
        <time>2022-04-19T07:32:48Z</time>
      </trkpt>
      <trkpt lat="48.66201" lon="1.72256">
        <ele>142.6</ele>
        <time>2022-04-19T07:32:55Z</time>
      </trkpt>
      <trkpt lat="48.66201" lon="1.72241">
        <ele>142.3</ele>
        <time>2022-04-19T07:33:02Z</time>
      </trkpt>
      <trkpt lat="48.662" lon="1.72226">
        <ele>141.9</ele>
        <time>2022-04-19T07:33:08Z</time>
      </trkpt>
      <trkpt lat="48.66197" lon="1.72213">
        <ele>141.9</ele>
        <time>2022-04-19T07:33:13Z</time>
      </trkpt>
      <trkpt lat="48.66194" lon="1.72198">
        <ele>142</ele>
        <time>2022-04-19T07:33:19Z</time>
      </trkpt>
      <trkpt lat="48.66194" lon="1.72184">
        <ele>141.6</ele>
        <time>2022-04-19T07:33:26Z</time>
      </trkpt>
      <trkpt lat="48.66192" lon="1.72169">
        <ele>141.1</ele>
        <time>2022-04-19T07:33:33Z</time>
      </trkpt>
      <trkpt lat="48.66194" lon="1.72154">
        <ele>140.6</ele>
        <time>2022-04-19T07:33:41Z</time>
      </trkpt>
      <trkpt lat="48.66193" lon="1.72139">
        <ele>140.1</ele>
        <time>2022-04-19T07:33:46Z</time>
      </trkpt>
      <trkpt lat="48.6619" lon="1.72123">
        <ele>139.6</ele>
        <time>2022-04-19T07:33:53Z</time>
      </trkpt>
      <trkpt lat="48.6619" lon="1.72109">
        <ele>139.2</ele>
        <time>2022-04-19T07:33:59Z</time>
      </trkpt>
      <trkpt lat="48.66187" lon="1.72095">
        <ele>139.1</ele>
        <time>2022-04-19T07:34:06Z</time>
      </trkpt>
      <trkpt lat="48.66185" lon="1.72079">
        <ele>138.7</ele>
        <time>2022-04-19T07:34:13Z</time>
      </trkpt>
      <trkpt lat="48.66181" lon="1.72066">
        <ele>137.8</ele>
        <time>2022-04-19T07:34:21Z</time>
      </trkpt>
      <trkpt lat="48.6618" lon="1.72052">
        <ele>136.9</ele>
        <time>2022-04-19T07:34:34Z</time>
      </trkpt>
      <trkpt lat="48.66171" lon="1.7205">
        <ele>136.8</ele>
        <time>2022-04-19T07:35:53Z</time>
      </trkpt>
      <trkpt lat="48.66165" lon="1.72063">
        <ele>137.5</ele>
        <time>2022-04-19T07:36:00Z</time>
      </trkpt>
      <trkpt lat="48.66162" lon="1.72076">
        <ele>138.4</ele>
        <time>2022-04-19T07:36:07Z</time>
      </trkpt>
      <trkpt lat="48.6616" lon="1.7209">
        <ele>139</ele>
        <time>2022-04-19T07:36:13Z</time>
      </trkpt>
      <trkpt lat="48.66155" lon="1.72104">
        <ele>139.3</ele>
        <time>2022-04-19T07:36:18Z</time>
      </trkpt>
      <trkpt lat="48.66148" lon="1.72114">
        <ele>139.4</ele>
        <time>2022-04-19T07:36:25Z</time>
      </trkpt>
      <trkpt lat="48.66141" lon="1.72125">
        <ele>139.6</ele>
        <time>2022-04-19T07:36:32Z</time>
      </trkpt>
      <trkpt lat="48.66136" lon="1.72137">
        <ele>139.9</ele>
        <time>2022-04-19T07:36:39Z</time>
      </trkpt>
      <trkpt lat="48.66134" lon="1.7215">
        <ele>140.4</ele>
        <time>2022-04-19T07:36:46Z</time>
      </trkpt>
      <trkpt lat="48.6613" lon="1.72165">
        <ele>140.9</ele>
        <time>2022-04-19T07:36:53Z</time>
      </trkpt>
      <trkpt lat="48.66125" lon="1.72179">
        <ele>141.4</ele>
        <time>2022-04-19T07:36:58Z</time>
      </trkpt>
      <trkpt lat="48.66122" lon="1.72194">
        <ele>142</ele>
        <time>2022-04-19T07:37:05Z</time>
      </trkpt>
      <trkpt lat="48.66118" lon="1.72208">
        <ele>142.5</ele>
        <time>2022-04-19T07:37:14Z</time>
      </trkpt>
      <trkpt lat="48.66115" lon="1.72223">
        <ele>143</ele>
        <time>2022-04-19T07:37:20Z</time>
      </trkpt>
      <trkpt lat="48.66112" lon="1.72237">
        <ele>143.5</ele>
        <time>2022-04-19T07:37:29Z</time>
      </trkpt>
      <trkpt lat="48.66111" lon="1.72253">
        <ele>144.1</ele>
        <time>2022-04-19T07:37:37Z</time>
      </trkpt>
      <trkpt lat="48.66107" lon="1.72268">
        <ele>144.5</ele>
        <time>2022-04-19T07:37:42Z</time>
      </trkpt>
      <trkpt lat="48.66103" lon="1.72281">
        <ele>144.7</ele>
        <time>2022-04-19T07:37:48Z</time>
      </trkpt>
      <trkpt lat="48.66098" lon="1.72293">
        <ele>144.8</ele>
        <time>2022-04-19T07:37:54Z</time>
      </trkpt>
      <trkpt lat="48.66091" lon="1.72305">
        <ele>145</ele>
        <time>2022-04-19T07:37:59Z</time>
      </trkpt>
      <trkpt lat="48.66085" lon="1.72316">
        <ele>145.4</ele>
        <time>2022-04-19T07:38:06Z</time>
      </trkpt>
      <trkpt lat="48.66078" lon="1.72325">
        <ele>145.7</ele>
        <time>2022-04-19T07:38:13Z</time>
      </trkpt>
      <trkpt lat="48.66071" lon="1.72337">
        <ele>146.1</ele>
        <time>2022-04-19T07:38:21Z</time>
      </trkpt>
      <trkpt lat="48.66067" lon="1.72349">
        <ele>146.6</ele>
        <time>2022-04-19T07:38:27Z</time>
      </trkpt>
      <trkpt lat="48.6606" lon="1.7236">
        <ele>146.9</ele>
        <time>2022-04-19T07:38:35Z</time>
      </trkpt>
      <trkpt lat="48.66055" lon="1.72374">
        <ele>147.5</ele>
        <time>2022-04-19T07:38:43Z</time>
      </trkpt>
      <trkpt lat="48.66052" lon="1.72389">
        <ele>148</ele>
        <time>2022-04-19T07:38:49Z</time>
      </trkpt>
      <trkpt lat="48.66047" lon="1.72403">
        <ele>148.8</ele>
        <time>2022-04-19T07:38:54Z</time>
      </trkpt>
      <trkpt lat="48.66043" lon="1.72415">
        <ele>149.5</ele>
        <time>2022-04-19T07:39:00Z</time>
      </trkpt>
      <trkpt lat="48.66038" lon="1.72427">
        <ele>150</ele>
        <time>2022-04-19T07:39:08Z</time>
      </trkpt>
      <trkpt lat="48.66033" lon="1.72438">
        <ele>150.6</ele>
        <time>2022-04-19T07:39:13Z</time>
      </trkpt>
      <trkpt lat="48.66027" lon="1.7245">
        <ele>151.4</ele>
        <time>2022-04-19T07:39:21Z</time>
      </trkpt>
      <trkpt lat="48.66021" lon="1.72461">
        <ele>152.1</ele>
        <time>2022-04-19T07:39:26Z</time>
      </trkpt>
      <trkpt lat="48.66015" lon="1.72473">
        <ele>153</ele>
        <time>2022-04-19T07:39:33Z</time>
      </trkpt>
      <trkpt lat="48.66007" lon="1.72482">
        <ele>153.4</ele>
        <time>2022-04-19T07:39:40Z</time>
      </trkpt>
      <trkpt lat="48.66" lon="1.72494">
        <ele>153.8</ele>
        <time>2022-04-19T07:39:47Z</time>
      </trkpt>
      <trkpt lat="48.65995" lon="1.72508">
        <ele>154.2</ele>
        <time>2022-04-19T07:39:55Z</time>
      </trkpt>
      <trkpt lat="48.65992" lon="1.72522">
        <ele>154.8</ele>
        <time>2022-04-19T07:40:02Z</time>
      </trkpt>
      <trkpt lat="48.65989" lon="1.72537">
        <ele>155.5</ele>
        <time>2022-04-19T07:40:08Z</time>
      </trkpt>
      <trkpt lat="48.65986" lon="1.72551">
        <ele>156.1</ele>
        <time>2022-04-19T07:40:14Z</time>
      </trkpt>
      <trkpt lat="48.65987" lon="1.72566">
        <ele>157.2</ele>
        <time>2022-04-19T07:40:22Z</time>
      </trkpt>
      <trkpt lat="48.65989" lon="1.7258">
        <ele>158.2</ele>
        <time>2022-04-19T07:40:31Z</time>
      </trkpt>
      <trkpt lat="48.65988" lon="1.72594">
        <ele>159</ele>
        <time>2022-04-19T07:40:37Z</time>
      </trkpt>
      <trkpt lat="48.65987" lon="1.72608">
        <ele>159.9</ele>
        <time>2022-04-19T07:40:44Z</time>
      </trkpt>
      <trkpt lat="48.65988" lon="1.72623">
        <ele>160.8</ele>
        <time>2022-04-19T07:40:51Z</time>
      </trkpt>
      <trkpt lat="48.65986" lon="1.72637">
        <ele>161.3</ele>
        <time>2022-04-19T07:40:58Z</time>
      </trkpt>
      <trkpt lat="48.65984" lon="1.72651">
        <ele>161.7</ele>
        <time>2022-04-19T07:41:05Z</time>
      </trkpt>
      <trkpt lat="48.6598" lon="1.72663">
        <ele>161.7</ele>
        <time>2022-04-19T07:41:11Z</time>
      </trkpt>
      <trkpt lat="48.65976" lon="1.72678">
        <ele>161.8</ele>
        <time>2022-04-19T07:41:17Z</time>
      </trkpt>
      <trkpt lat="48.65973" lon="1.72692">
        <ele>162</ele>
        <time>2022-04-19T07:41:24Z</time>
      </trkpt>
      <trkpt lat="48.65973" lon="1.72706">
        <ele>162.5</ele>
        <time>2022-04-19T07:41:31Z</time>
      </trkpt>
      <trkpt lat="48.65968" lon="1.72719">
        <ele>162.9</ele>
        <time>2022-04-19T07:41:38Z</time>
      </trkpt>
      <trkpt lat="48.65963" lon="1.72732">
        <ele>163.1</ele>
        <time>2022-04-19T07:41:48Z</time>
      </trkpt>
      <trkpt lat="48.65954" lon="1.72738">
        <ele>163.4</ele>
        <time>2022-04-19T07:41:57Z</time>
      </trkpt>
      <trkpt lat="48.65946" lon="1.72748">
        <ele>163.9</ele>
        <time>2022-04-19T07:42:04Z</time>
      </trkpt>
      <trkpt lat="48.65939" lon="1.72759">
        <ele>164.6</ele>
        <time>2022-04-19T07:42:11Z</time>
      </trkpt>
      <trkpt lat="48.65932" lon="1.72769">
        <ele>165.3</ele>
        <time>2022-04-19T07:42:17Z</time>
      </trkpt>
      <trkpt lat="48.65926" lon="1.72781">
        <ele>165.8</ele>
        <time>2022-04-19T07:42:28Z</time>
      </trkpt>
      <trkpt lat="48.6592" lon="1.72794">
        <ele>166</ele>
        <time>2022-04-19T07:42:35Z</time>
      </trkpt>
      <trkpt lat="48.65913" lon="1.72804">
        <ele>166.3</ele>
        <time>2022-04-19T07:42:41Z</time>
      </trkpt>
      <trkpt lat="48.65906" lon="1.72813">
        <ele>166.8</ele>
        <time>2022-04-19T07:42:47Z</time>
      </trkpt>
      <trkpt lat="48.65898" lon="1.72823">
        <ele>167.3</ele>
        <time>2022-04-19T07:42:55Z</time>
      </trkpt>
      <trkpt lat="48.65892" lon="1.72834">
        <ele>167.8</ele>
        <time>2022-04-19T07:43:02Z</time>
      </trkpt>
      <trkpt lat="48.65885" lon="1.72841">
        <ele>168.3</ele>
        <time>2022-04-19T07:43:08Z</time>
      </trkpt>
      <trkpt lat="48.65877" lon="1.72848">
        <ele>168.6</ele>
        <time>2022-04-19T07:43:16Z</time>
      </trkpt>
      <trkpt lat="48.65869" lon="1.72856">
        <ele>168.9</ele>
        <time>2022-04-19T07:43:24Z</time>
      </trkpt>
      <trkpt lat="48.6586" lon="1.72861">
        <ele>169.1</ele>
        <time>2022-04-19T07:43:31Z</time>
      </trkpt>
      <trkpt lat="48.65854" lon="1.72871">
        <ele>169.3</ele>
        <time>2022-04-19T07:43:39Z</time>
      </trkpt>
      <trkpt lat="48.65846" lon="1.72879">
        <ele>169.5</ele>
        <time>2022-04-19T07:43:57Z</time>
      </trkpt>
      <trkpt lat="48.65838" lon="1.72888">
        <ele>169.8</ele>
        <time>2022-04-19T07:44:07Z</time>
      </trkpt>
      <trkpt lat="48.65828" lon="1.72893">
        <ele>169.9</ele>
        <time>2022-04-19T07:44:15Z</time>
      </trkpt>
      <trkpt lat="48.65819" lon="1.72896">
        <ele>169.9</ele>
        <time>2022-04-19T07:44:22Z</time>
      </trkpt>
      <trkpt lat="48.6581" lon="1.72899">
        <ele>169.9</ele>
        <time>2022-04-19T07:44:31Z</time>
      </trkpt>
      <trkpt lat="48.658" lon="1.729">
        <ele>170</ele>
        <time>2022-04-19T07:44:39Z</time>
      </trkpt>
      <trkpt lat="48.65791" lon="1.72906">
        <ele>170</ele>
        <time>2022-04-19T07:44:45Z</time>
      </trkpt>
      <trkpt lat="48.65783" lon="1.72913">
        <ele>170</ele>
        <time>2022-04-19T07:44:51Z</time>
      </trkpt>
      <trkpt lat="48.65773" lon="1.72917">
        <ele>170</ele>
        <time>2022-04-19T07:44:57Z</time>
      </trkpt>
      <trkpt lat="48.65764" lon="1.72915">
        <ele>170</ele>
        <time>2022-04-19T07:45:04Z</time>
      </trkpt>
      <trkpt lat="48.65756" lon="1.72906">
        <ele>170.3</ele>
        <time>2022-04-19T07:45:14Z</time>
      </trkpt>
      <trkpt lat="48.65748" lon="1.72899">
        <ele>170.7</ele>
        <time>2022-04-19T07:45:22Z</time>
      </trkpt>
      <trkpt lat="48.65739" lon="1.72892">
        <ele>170.9</ele>
        <time>2022-04-19T07:45:31Z</time>
      </trkpt>
      <trkpt lat="48.65731" lon="1.72884">
        <ele>171</ele>
        <time>2022-04-19T07:45:39Z</time>
      </trkpt>
      <trkpt lat="48.65723" lon="1.72877">
        <ele>171</ele>
        <time>2022-04-19T07:45:46Z</time>
      </trkpt>
      <trkpt lat="48.65714" lon="1.72868">
        <ele>171</ele>
        <time>2022-04-19T07:45:55Z</time>
      </trkpt>
      <trkpt lat="48.65707" lon="1.72859">
        <ele>171</ele>
        <time>2022-04-19T07:46:01Z</time>
      </trkpt>
      <trkpt lat="48.657" lon="1.72851">
        <ele>171</ele>
        <time>2022-04-19T07:46:09Z</time>
      </trkpt>
      <trkpt lat="48.65695" lon="1.72839">
        <ele>171</ele>
        <time>2022-04-19T07:46:16Z</time>
      </trkpt>
      <trkpt lat="48.65687" lon="1.72835">
        <ele>171</ele>
        <time>2022-04-19T07:46:28Z</time>
      </trkpt>
      <trkpt lat="48.65685" lon="1.7282">
        <ele>171</ele>
        <time>2022-04-19T07:47:17Z</time>
      </trkpt>
      <trkpt lat="48.65688" lon="1.72807">
        <ele>171</ele>
        <time>2022-04-19T07:47:31Z</time>
      </trkpt>
      <trkpt lat="48.65693" lon="1.72795">
        <ele>170.6</ele>
        <time>2022-04-19T07:47:45Z</time>
      </trkpt>
      <trkpt lat="48.65699" lon="1.72783">
        <ele>170.3</ele>
        <time>2022-04-19T07:47:55Z</time>
      </trkpt>
      <trkpt lat="48.657" lon="1.72768">
        <ele>170.2</ele>
        <time>2022-04-19T07:48:05Z</time>
      </trkpt>
      <trkpt lat="48.65703" lon="1.72754">
        <ele>170.3</ele>
        <time>2022-04-19T07:48:14Z</time>
      </trkpt>
      <trkpt lat="48.65706" lon="1.72741">
        <ele>170.4</ele>
        <time>2022-04-19T07:48:23Z</time>
      </trkpt>
      <trkpt lat="48.65712" lon="1.7273">
        <ele>170.6</ele>
        <time>2022-04-19T07:48:32Z</time>
      </trkpt>
      <trkpt lat="48.65712" lon="1.72716">
        <ele>170.6</ele>
        <time>2022-04-19T07:48:39Z</time>
      </trkpt>
      <trkpt lat="48.65714" lon="1.72702">
        <ele>170.7</ele>
        <time>2022-04-19T07:48:47Z</time>
      </trkpt>
      <trkpt lat="48.65719" lon="1.72689">
        <ele>170.7</ele>
        <time>2022-04-19T07:48:58Z</time>
      </trkpt>
      <trkpt lat="48.65725" lon="1.72679">
        <ele>170.5</ele>
        <time>2022-04-19T07:49:07Z</time>
      </trkpt>
      <trkpt lat="48.65726" lon="1.72665">
        <ele>170.1</ele>
        <time>2022-04-19T07:49:15Z</time>
      </trkpt>
      <trkpt lat="48.6573" lon="1.72651">
        <ele>170.3</ele>
        <time>2022-04-19T07:49:25Z</time>
      </trkpt>
      <trkpt lat="48.65734" lon="1.72638">
        <ele>170.4</ele>
        <time>2022-04-19T07:49:32Z</time>
      </trkpt>
      <trkpt lat="48.65737" lon="1.72623">
        <ele>170.5</ele>
        <time>2022-04-19T07:49:40Z</time>
      </trkpt>
      <trkpt lat="48.65738" lon="1.72609">
        <ele>170.6</ele>
        <time>2022-04-19T07:49:48Z</time>
      </trkpt>
      <trkpt lat="48.65741" lon="1.72596">
        <ele>170.7</ele>
        <time>2022-04-19T07:49:55Z</time>
      </trkpt>
      <trkpt lat="48.65748" lon="1.72586">
        <ele>170.9</ele>
        <time>2022-04-19T07:50:03Z</time>
      </trkpt>
      <trkpt lat="48.6575" lon="1.72572">
        <ele>171</ele>
        <time>2022-04-19T07:50:09Z</time>
      </trkpt>
      <trkpt lat="48.65752" lon="1.72559">
        <ele>171</ele>
        <time>2022-04-19T07:50:15Z</time>
      </trkpt>
      <trkpt lat="48.65757" lon="1.72546">
        <ele>171</ele>
        <time>2022-04-19T07:50:23Z</time>
      </trkpt>
      <trkpt lat="48.6576" lon="1.72531">
        <ele>171</ele>
        <time>2022-04-19T07:50:30Z</time>
      </trkpt>
      <trkpt lat="48.6576" lon="1.72516">
        <ele>170.9</ele>
        <time>2022-04-19T07:50:35Z</time>
      </trkpt>
      <trkpt lat="48.65763" lon="1.72502">
        <ele>170.6</ele>
        <time>2022-04-19T07:50:39Z</time>
      </trkpt>
      <trkpt lat="48.65764" lon="1.72487">
        <ele>170</ele>
        <time>2022-04-19T07:50:47Z</time>
      </trkpt>
      <trkpt lat="48.65769" lon="1.72472">
        <ele>169.3</ele>
        <time>2022-04-19T07:50:53Z</time>
      </trkpt>
      <trkpt lat="48.65771" lon="1.72459">
        <ele>169.2</ele>
        <time>2022-04-19T07:50:58Z</time>
      </trkpt>
      <trkpt lat="48.65771" lon="1.72444">
        <ele>169.2</ele>
        <time>2022-04-19T07:51:05Z</time>
      </trkpt>
      <trkpt lat="48.65771" lon="1.7243">
        <ele>168.7</ele>
        <time>2022-04-19T07:51:12Z</time>
      </trkpt>
      <trkpt lat="48.65774" lon="1.72417">
        <ele>168.1</ele>
        <time>2022-04-19T07:51:23Z</time>
      </trkpt>
      <trkpt lat="48.65778" lon="1.72402">
        <ele>167</ele>
        <time>2022-04-19T07:51:30Z</time>
      </trkpt>
      <trkpt lat="48.6578" lon="1.72389">
        <ele>165.8</ele>
        <time>2022-04-19T07:51:36Z</time>
      </trkpt>
      <trkpt lat="48.65784" lon="1.72375">
        <ele>165.2</ele>
        <time>2022-04-19T07:51:45Z</time>
      </trkpt>
      <trkpt lat="48.65788" lon="1.72363">
        <ele>164.5</ele>
        <time>2022-04-19T07:51:52Z</time>
      </trkpt>
      <trkpt lat="48.65792" lon="1.7235">
        <ele>164.1</ele>
        <time>2022-04-19T07:51:59Z</time>
      </trkpt>
      <trkpt lat="48.65797" lon="1.72337">
        <ele>163.8</ele>
        <time>2022-04-19T07:52:07Z</time>
      </trkpt>
      <trkpt lat="48.65801" lon="1.72323">
        <ele>163.8</ele>
        <time>2022-04-19T07:52:13Z</time>
      </trkpt>
      <trkpt lat="48.65806" lon="1.7231">
        <ele>163.8</ele>
        <time>2022-04-19T07:52:19Z</time>
      </trkpt>
      <trkpt lat="48.65812" lon="1.72297">
        <ele>162.9</ele>
        <time>2022-04-19T07:52:26Z</time>
      </trkpt>
      <trkpt lat="48.65815" lon="1.72283">
        <ele>162.1</ele>
        <time>2022-04-19T07:52:32Z</time>
      </trkpt>
      <trkpt lat="48.65819" lon="1.72269">
        <ele>161.3</ele>
        <time>2022-04-19T07:52:38Z</time>
      </trkpt>
      <trkpt lat="48.65824" lon="1.72256">
        <ele>160.2</ele>
        <time>2022-04-19T07:52:44Z</time>
      </trkpt>
      <trkpt lat="48.65827" lon="1.72243">
        <ele>159.4</ele>
        <time>2022-04-19T07:52:51Z</time>
      </trkpt>
      <trkpt lat="48.65829" lon="1.72229">
        <ele>158.6</ele>
        <time>2022-04-19T07:52:58Z</time>
      </trkpt>
      <trkpt lat="48.65833" lon="1.72214">
        <ele>157.4</ele>
        <time>2022-04-19T07:53:07Z</time>
      </trkpt>
      <trkpt lat="48.65837" lon="1.722">
        <ele>156.2</ele>
        <time>2022-04-19T07:53:14Z</time>
      </trkpt>
      <trkpt lat="48.65841" lon="1.72188">
        <ele>155.2</ele>
        <time>2022-04-19T07:53:21Z</time>
      </trkpt>
      <trkpt lat="48.65845" lon="1.72173">
        <ele>154</ele>
        <time>2022-04-19T07:53:26Z</time>
      </trkpt>
      <trkpt lat="48.65849" lon="1.72161">
        <ele>152.2</ele>
        <time>2022-04-19T07:53:33Z</time>
      </trkpt>
      <trkpt lat="48.65851" lon="1.72147">
        <ele>149.5</ele>
        <time>2022-04-19T07:53:41Z</time>
      </trkpt>
      <trkpt lat="48.65855" lon="1.72134">
        <ele>147.7</ele>
        <time>2022-04-19T07:53:44Z</time>
      </trkpt>
      <trkpt lat="48.65856" lon="1.72117">
        <ele>146.6</ele>
        <time>2022-04-19T07:53:48Z</time>
      </trkpt>
      <trkpt lat="48.65858" lon="1.72101">
        <ele>147.2</ele>
        <time>2022-04-19T07:53:52Z</time>
      </trkpt>
      <trkpt lat="48.65862" lon="1.72085">
        <ele>148.8</ele>
        <time>2022-04-19T07:53:56Z</time>
      </trkpt>
      <trkpt lat="48.65864" lon="1.7207">
        <ele>150.2</ele>
        <time>2022-04-19T07:54:00Z</time>
      </trkpt>
      <trkpt lat="48.65866" lon="1.72057">
        <ele>151.3</ele>
        <time>2022-04-19T07:54:04Z</time>
      </trkpt>
      <trkpt lat="48.65872" lon="1.72041">
        <ele>151.2</ele>
        <time>2022-04-19T07:54:09Z</time>
      </trkpt>
      <trkpt lat="48.65876" lon="1.72028">
        <ele>151.4</ele>
        <time>2022-04-19T07:54:13Z</time>
      </trkpt>
      <trkpt lat="48.65881" lon="1.72014">
        <ele>151.3</ele>
        <time>2022-04-19T07:54:17Z</time>
      </trkpt>
      <trkpt lat="48.65885" lon="1.72001">
        <ele>151.1</ele>
        <time>2022-04-19T07:54:20Z</time>
      </trkpt>
      <trkpt lat="48.65888" lon="1.71984">
        <ele>150.5</ele>
        <time>2022-04-19T07:54:24Z</time>
      </trkpt>
      <trkpt lat="48.65891" lon="1.71967">
        <ele>149.9</ele>
        <time>2022-04-19T07:54:28Z</time>
      </trkpt>
      <trkpt lat="48.65893" lon="1.71953">
        <ele>149.7</ele>
        <time>2022-04-19T07:54:31Z</time>
      </trkpt>
      <trkpt lat="48.65896" lon="1.7194">
        <ele>149.5</ele>
        <time>2022-04-19T07:54:34Z</time>
      </trkpt>
      <trkpt lat="48.65901" lon="1.71924">
        <ele>149.1</ele>
        <time>2022-04-19T07:54:38Z</time>
      </trkpt>
      <trkpt lat="48.65903" lon="1.71908">
        <ele>148.9</ele>
        <time>2022-04-19T07:54:42Z</time>
      </trkpt>
      <trkpt lat="48.65909" lon="1.71895">
        <ele>148.6</ele>
        <time>2022-04-19T07:54:51Z</time>
      </trkpt>
      <trkpt lat="48.65915" lon="1.71885">
        <ele>148.3</ele>
        <time>2022-04-19T07:54:58Z</time>
      </trkpt>
      <trkpt lat="48.65915" lon="1.71871">
        <ele>148.8</ele>
        <time>2022-04-19T07:55:06Z</time>
      </trkpt>
      <trkpt lat="48.65917" lon="1.71857">
        <ele>149.2</ele>
        <time>2022-04-19T07:56:19Z</time>
      </trkpt>
      <trkpt lat="48.65907" lon="1.71852">
        <ele>150.1</ele>
        <time>2022-04-19T07:59:39Z</time>
      </trkpt>
      <trkpt lat="48.65898" lon="1.71854">
        <ele>150.7</ele>
        <time>2022-04-19T07:59:48Z</time>
      </trkpt>
      <trkpt lat="48.65889" lon="1.71859">
        <ele>151.2</ele>
        <time>2022-04-19T07:59:58Z</time>
      </trkpt>
      <trkpt lat="48.65879" lon="1.71861">
        <ele>151.8</ele>
        <time>2022-04-19T08:00:09Z</time>
      </trkpt>
      <trkpt lat="48.65869" lon="1.71862">
        <ele>152.4</ele>
        <time>2022-04-19T08:00:17Z</time>
      </trkpt>
      <trkpt lat="48.6586" lon="1.71864">
        <ele>152.9</ele>
        <time>2022-04-19T08:00:25Z</time>
      </trkpt>
      <trkpt lat="48.6585" lon="1.71866">
        <ele>153.2</ele>
        <time>2022-04-19T08:00:36Z</time>
      </trkpt>
      <trkpt lat="48.65841" lon="1.71863">
        <ele>153.7</ele>
        <time>2022-04-19T08:00:44Z</time>
      </trkpt>
      <trkpt lat="48.65832" lon="1.71863">
        <ele>154</ele>
        <time>2022-04-19T08:00:50Z</time>
      </trkpt>
      <trkpt lat="48.65822" lon="1.71863">
        <ele>154.7</ele>
        <time>2022-04-19T08:00:57Z</time>
      </trkpt>
      <trkpt lat="48.65812" lon="1.71861">
        <ele>155.5</ele>
        <time>2022-04-19T08:01:04Z</time>
      </trkpt>
      <trkpt lat="48.65802" lon="1.71866">
        <ele>156.2</ele>
        <time>2022-04-19T08:01:12Z</time>
      </trkpt>
      <trkpt lat="48.65792" lon="1.71867">
        <ele>157.3</ele>
        <time>2022-04-19T08:01:19Z</time>
      </trkpt>
      <trkpt lat="48.65783" lon="1.7187">
        <ele>158.2</ele>
        <time>2022-04-19T08:01:26Z</time>
      </trkpt>
      <trkpt lat="48.65773" lon="1.71874">
        <ele>159.4</ele>
        <time>2022-04-19T08:01:34Z</time>
      </trkpt>
      <trkpt lat="48.65764" lon="1.71879">
        <ele>160.5</ele>
        <time>2022-04-19T08:01:42Z</time>
      </trkpt>
      <trkpt lat="48.65755" lon="1.71885">
        <ele>161.6</ele>
        <time>2022-04-19T08:01:50Z</time>
      </trkpt>
      <trkpt lat="48.65746" lon="1.71892">
        <ele>162.7</ele>
        <time>2022-04-19T08:01:58Z</time>
      </trkpt>
      <trkpt lat="48.65736" lon="1.71897">
        <ele>164.2</ele>
        <time>2022-04-19T08:02:07Z</time>
      </trkpt>
      <trkpt lat="48.65727" lon="1.71898">
        <ele>165.8</ele>
        <time>2022-04-19T08:02:17Z</time>
      </trkpt>
      <trkpt lat="48.65719" lon="1.71904">
        <ele>166.9</ele>
        <time>2022-04-19T08:02:25Z</time>
      </trkpt>
      <trkpt lat="48.6571" lon="1.71907">
        <ele>168</ele>
        <time>2022-04-19T08:02:36Z</time>
      </trkpt>
      <trkpt lat="48.65701" lon="1.71911">
        <ele>169.2</ele>
        <time>2022-04-19T08:02:46Z</time>
      </trkpt>
      <trkpt lat="48.65692" lon="1.71916">
        <ele>170.1</ele>
        <time>2022-04-19T08:02:56Z</time>
      </trkpt>
      <trkpt lat="48.65682" lon="1.71912">
        <ele>170.4</ele>
        <time>2022-04-19T08:03:08Z</time>
      </trkpt>
      <trkpt lat="48.65674" lon="1.71907">
        <ele>170.7</ele>
        <time>2022-04-19T08:03:17Z</time>
      </trkpt>
      <trkpt lat="48.65665" lon="1.71901">
        <ele>171</ele>
        <time>2022-04-19T08:03:27Z</time>
      </trkpt>
      <trkpt lat="48.65657" lon="1.71894">
        <ele>171</ele>
        <time>2022-04-19T08:03:36Z</time>
      </trkpt>
      <trkpt lat="48.65648" lon="1.7189">
        <ele>171</ele>
        <time>2022-04-19T08:03:45Z</time>
      </trkpt>
      <trkpt lat="48.6564" lon="1.71883">
        <ele>171</ele>
        <time>2022-04-19T08:03:54Z</time>
      </trkpt>
      <trkpt lat="48.65632" lon="1.71877">
        <ele>170.9</ele>
        <time>2022-04-19T08:04:02Z</time>
      </trkpt>
      <trkpt lat="48.65622" lon="1.7187">
        <ele>170.6</ele>
        <time>2022-04-19T08:04:10Z</time>
      </trkpt>
      <trkpt lat="48.65614" lon="1.71862">
        <ele>170.1</ele>
        <time>2022-04-19T08:04:16Z</time>
      </trkpt>
      <trkpt lat="48.65605" lon="1.71859">
        <ele>170</ele>
        <time>2022-04-19T08:04:22Z</time>
      </trkpt>
      <trkpt lat="48.65595" lon="1.71856">
        <ele>170</ele>
        <time>2022-04-19T08:04:29Z</time>
      </trkpt>
      <trkpt lat="48.65585" lon="1.71853">
        <ele>170</ele>
        <time>2022-04-19T08:04:36Z</time>
      </trkpt>
      <trkpt lat="48.65574" lon="1.71848">
        <ele>170</ele>
        <time>2022-04-19T08:04:41Z</time>
      </trkpt>
      <trkpt lat="48.65565" lon="1.7184">
        <ele>170</ele>
        <time>2022-04-19T08:04:46Z</time>
      </trkpt>
      <trkpt lat="48.65555" lon="1.71832">
        <ele>170</ele>
        <time>2022-04-19T08:04:51Z</time>
      </trkpt>
      <trkpt lat="48.65549" lon="1.71823">
        <ele>170</ele>
        <time>2022-04-19T08:04:56Z</time>
      </trkpt>
      <trkpt lat="48.65542" lon="1.71812">
        <ele>170</ele>
        <time>2022-04-19T08:05:02Z</time>
      </trkpt>
      <trkpt lat="48.65535" lon="1.71804">
        <ele>169.9</ele>
        <time>2022-04-19T08:05:08Z</time>
      </trkpt>
      <trkpt lat="48.65527" lon="1.71794">
        <ele>169.6</ele>
        <time>2022-04-19T08:05:15Z</time>
      </trkpt>
      <trkpt lat="48.65521" lon="1.71782">
        <ele>169.4</ele>
        <time>2022-04-19T08:05:22Z</time>
      </trkpt>
      <trkpt lat="48.65514" lon="1.71771">
        <ele>169.6</ele>
        <time>2022-04-19T08:05:29Z</time>
      </trkpt>
      <trkpt lat="48.65509" lon="1.7176">
        <ele>169.9</ele>
        <time>2022-04-19T08:05:35Z</time>
      </trkpt>
      <trkpt lat="48.65504" lon="1.71748">
        <ele>169.9</ele>
        <time>2022-04-19T08:05:41Z</time>
      </trkpt>
      <trkpt lat="48.65498" lon="1.71735">
        <ele>169.5</ele>
        <time>2022-04-19T08:05:48Z</time>
      </trkpt>
      <trkpt lat="48.65492" lon="1.71723">
        <ele>169</ele>
        <time>2022-04-19T08:05:55Z</time>
      </trkpt>
      <trkpt lat="48.65486" lon="1.71711">
        <ele>169</ele>
        <time>2022-04-19T08:06:02Z</time>
      </trkpt>
      <trkpt lat="48.6548" lon="1.71701">
        <ele>169</ele>
        <time>2022-04-19T08:06:09Z</time>
      </trkpt>
      <trkpt lat="48.65474" lon="1.71688">
        <ele>169</ele>
        <time>2022-04-19T08:06:18Z</time>
      </trkpt>
      <trkpt lat="48.65468" lon="1.71676">
        <ele>169</ele>
        <time>2022-04-19T08:06:26Z</time>
      </trkpt>
      <trkpt lat="48.65463" lon="1.71665">
        <ele>168.9</ele>
        <time>2022-04-19T08:06:32Z</time>
      </trkpt>
      <trkpt lat="48.65457" lon="1.71654">
        <ele>168.5</ele>
        <time>2022-04-19T08:06:39Z</time>
      </trkpt>
      <trkpt lat="48.65452" lon="1.71642">
        <ele>168.1</ele>
        <time>2022-04-19T08:06:45Z</time>
      </trkpt>
      <trkpt lat="48.65446" lon="1.71631">
        <ele>168</ele>
        <time>2022-04-19T08:06:51Z</time>
      </trkpt>
      <trkpt lat="48.6544" lon="1.7162">
        <ele>168</ele>
        <time>2022-04-19T08:06:58Z</time>
      </trkpt>
      <trkpt lat="48.65434" lon="1.71609">
        <ele>168</ele>
        <time>2022-04-19T08:07:04Z</time>
      </trkpt>
      <trkpt lat="48.65428" lon="1.716">
        <ele>168</ele>
        <time>2022-04-19T08:07:10Z</time>
      </trkpt>
      <trkpt lat="48.65422" lon="1.71589">
        <ele>168</ele>
        <time>2022-04-19T08:07:16Z</time>
      </trkpt>
      <trkpt lat="48.65415" lon="1.71577">
        <ele>168</ele>
        <time>2022-04-19T08:07:22Z</time>
      </trkpt>
      <trkpt lat="48.65408" lon="1.71567">
        <ele>168</ele>
        <time>2022-04-19T08:07:27Z</time>
      </trkpt>
      <trkpt lat="48.65401" lon="1.71557">
        <ele>168</ele>
        <time>2022-04-19T08:07:33Z</time>
      </trkpt>
      <trkpt lat="48.65396" lon="1.71546">
        <ele>168</ele>
        <time>2022-04-19T08:07:39Z</time>
      </trkpt>
      <trkpt lat="48.65389" lon="1.71534">
        <ele>168</ele>
        <time>2022-04-19T08:07:46Z</time>
      </trkpt>
      <trkpt lat="48.65386" lon="1.71521">
        <ele>167.7</ele>
        <time>2022-04-19T08:07:53Z</time>
      </trkpt>
      <trkpt lat="48.65382" lon="1.71507">
        <ele>167.2</ele>
        <time>2022-04-19T08:08:00Z</time>
      </trkpt>
      <trkpt lat="48.65376" lon="1.71494">
        <ele>167</ele>
        <time>2022-04-19T08:08:07Z</time>
      </trkpt>
      <trkpt lat="48.65371" lon="1.71481">
        <ele>167</ele>
        <time>2022-04-19T08:08:14Z</time>
      </trkpt>
      <trkpt lat="48.65367" lon="1.71468">
        <ele>167</ele>
        <time>2022-04-19T08:08:20Z</time>
      </trkpt>
      <trkpt lat="48.65362" lon="1.71456">
        <ele>167</ele>
        <time>2022-04-19T08:08:26Z</time>
      </trkpt>
      <trkpt lat="48.65355" lon="1.71444">
        <ele>167</ele>
        <time>2022-04-19T08:08:33Z</time>
      </trkpt>
      <trkpt lat="48.65351" lon="1.7143">
        <ele>167</ele>
        <time>2022-04-19T08:08:38Z</time>
      </trkpt>
      <trkpt lat="48.65345" lon="1.71417">
        <ele>167</ele>
        <time>2022-04-19T08:08:44Z</time>
      </trkpt>
      <trkpt lat="48.6534" lon="1.71404">
        <ele>166.6</ele>
        <time>2022-04-19T08:08:50Z</time>
      </trkpt>
      <trkpt lat="48.65334" lon="1.71392">
        <ele>166.1</ele>
        <time>2022-04-19T08:08:56Z</time>
      </trkpt>
      <trkpt lat="48.65329" lon="1.7138">
        <ele>166</ele>
        <time>2022-04-19T08:09:02Z</time>
      </trkpt>
      <trkpt lat="48.65324" lon="1.71369">
        <ele>166</ele>
        <time>2022-04-19T08:09:08Z</time>
      </trkpt>
      <trkpt lat="48.65319" lon="1.71355">
        <ele>165.9</ele>
        <time>2022-04-19T08:09:14Z</time>
      </trkpt>
      <trkpt lat="48.65314" lon="1.71343">
        <ele>165.5</ele>
        <time>2022-04-19T08:09:20Z</time>
      </trkpt>
      <trkpt lat="48.65308" lon="1.71331">
        <ele>165.1</ele>
        <time>2022-04-19T08:09:26Z</time>
      </trkpt>
      <trkpt lat="48.65303" lon="1.7132">
        <ele>165</ele>
        <time>2022-04-19T08:09:32Z</time>
      </trkpt>
      <trkpt lat="48.65297" lon="1.71309">
        <ele>165</ele>
        <time>2022-04-19T08:09:38Z</time>
      </trkpt>
      <trkpt lat="48.65291" lon="1.71298">
        <ele>165</ele>
        <time>2022-04-19T08:09:44Z</time>
      </trkpt>
      <trkpt lat="48.65284" lon="1.71287">
        <ele>165</ele>
        <time>2022-04-19T08:09:50Z</time>
      </trkpt>
      <trkpt lat="48.65278" lon="1.71277">
        <ele>165</ele>
        <time>2022-04-19T08:09:56Z</time>
      </trkpt>
      <trkpt lat="48.65271" lon="1.71266">
        <ele>165</ele>
        <time>2022-04-19T08:10:03Z</time>
      </trkpt>
      <trkpt lat="48.65265" lon="1.71256">
        <ele>165</ele>
        <time>2022-04-19T08:10:11Z</time>
      </trkpt>
      <trkpt lat="48.65263" lon="1.71242">
        <ele>164.9</ele>
        <time>2022-04-19T08:11:12Z</time>
      </trkpt>
      <trkpt lat="48.65267" lon="1.71229">
        <ele>164.5</ele>
        <time>2022-04-19T08:11:20Z</time>
      </trkpt>
      <trkpt lat="48.65272" lon="1.71217">
        <ele>164.2</ele>
        <time>2022-04-19T08:11:29Z</time>
      </trkpt>
      <trkpt lat="48.65275" lon="1.71203">
        <ele>164.1</ele>
        <time>2022-04-19T08:11:36Z</time>
      </trkpt>
      <trkpt lat="48.6528" lon="1.71191">
        <ele>164</ele>
        <time>2022-04-19T08:11:43Z</time>
      </trkpt>
      <trkpt lat="48.65284" lon="1.71179">
        <ele>164</ele>
        <time>2022-04-19T08:11:50Z</time>
      </trkpt>
      <trkpt lat="48.6529" lon="1.71166">
        <ele>164</ele>
        <time>2022-04-19T08:11:58Z</time>
      </trkpt>
      <trkpt lat="48.65296" lon="1.71153">
        <ele>163.7</ele>
        <time>2022-04-19T08:12:06Z</time>
      </trkpt>
      <trkpt lat="48.653" lon="1.71138">
        <ele>163.2</ele>
        <time>2022-04-19T08:12:13Z</time>
      </trkpt>
      <trkpt lat="48.65303" lon="1.71123">
        <ele>163.1</ele>
        <time>2022-04-19T08:12:20Z</time>
      </trkpt>
      <trkpt lat="48.65307" lon="1.7111">
        <ele>163</ele>
        <time>2022-04-19T08:12:27Z</time>
      </trkpt>
      <trkpt lat="48.65309" lon="1.71096">
        <ele>162.9</ele>
        <time>2022-04-19T08:12:35Z</time>
      </trkpt>
      <trkpt lat="48.65312" lon="1.71083">
        <ele>162.8</ele>
        <time>2022-04-19T08:12:45Z</time>
      </trkpt>
      <trkpt lat="48.65318" lon="1.71072">
        <ele>162.7</ele>
        <time>2022-04-19T08:12:51Z</time>
      </trkpt>
      <trkpt lat="48.65323" lon="1.71059">
        <ele>162.9</ele>
        <time>2022-04-19T08:12:57Z</time>
      </trkpt>
      <trkpt lat="48.65327" lon="1.71045">
        <ele>162.6</ele>
        <time>2022-04-19T08:13:04Z</time>
      </trkpt>
      <trkpt lat="48.65334" lon="1.71033">
        <ele>162.2</ele>
        <time>2022-04-19T08:13:11Z</time>
      </trkpt>
      <trkpt lat="48.65337" lon="1.7102">
        <ele>162</ele>
        <time>2022-04-19T08:13:18Z</time>
      </trkpt>
      <trkpt lat="48.65342" lon="1.71006">
        <ele>162</ele>
        <time>2022-04-19T08:13:26Z</time>
      </trkpt>
      <trkpt lat="48.65345" lon="1.70992">
        <ele>162</ele>
        <time>2022-04-19T08:13:33Z</time>
      </trkpt>
      <trkpt lat="48.65348" lon="1.70977">
        <ele>162</ele>
        <time>2022-04-19T08:13:40Z</time>
      </trkpt>
      <trkpt lat="48.65349" lon="1.70962">
        <ele>162.4</ele>
        <time>2022-04-19T08:13:47Z</time>
      </trkpt>
      <trkpt lat="48.6535" lon="1.70946">
        <ele>163</ele>
        <time>2022-04-19T08:13:54Z</time>
      </trkpt>
      <trkpt lat="48.65351" lon="1.7093">
        <ele>163</ele>
        <time>2022-04-19T08:14:01Z</time>
      </trkpt>
      <trkpt lat="48.65351" lon="1.70915">
        <ele>163.1</ele>
        <time>2022-04-19T08:14:08Z</time>
      </trkpt>
      <trkpt lat="48.65353" lon="1.709">
        <ele>163.6</ele>
        <time>2022-04-19T08:14:15Z</time>
      </trkpt>
      <trkpt lat="48.65354" lon="1.70885">
        <ele>164</ele>
        <time>2022-04-19T08:14:22Z</time>
      </trkpt>
      <trkpt lat="48.65355" lon="1.70871">
        <ele>164</ele>
        <time>2022-04-19T08:14:29Z</time>
      </trkpt>
      <trkpt lat="48.65356" lon="1.70857">
        <ele>164</ele>
        <time>2022-04-19T08:14:36Z</time>
      </trkpt>
      <trkpt lat="48.65357" lon="1.70842">
        <ele>164</ele>
        <time>2022-04-19T08:14:43Z</time>
      </trkpt>
      <trkpt lat="48.65358" lon="1.70827">
        <ele>164.2</ele>
        <time>2022-04-19T08:14:50Z</time>
      </trkpt>
      <trkpt lat="48.65359" lon="1.70813">
        <ele>164.7</ele>
        <time>2022-04-19T08:14:57Z</time>
      </trkpt>
      <trkpt lat="48.65361" lon="1.70799">
        <ele>165</ele>
        <time>2022-04-19T08:15:04Z</time>
      </trkpt>
      <trkpt lat="48.65361" lon="1.70784">
        <ele>165</ele>
        <time>2022-04-19T08:15:11Z</time>
      </trkpt>
      <trkpt lat="48.65362" lon="1.70769">
        <ele>165</ele>
        <time>2022-04-19T08:15:18Z</time>
      </trkpt>
      <trkpt lat="48.65364" lon="1.70754">
        <ele>165</ele>
        <time>2022-04-19T08:15:25Z</time>
      </trkpt>
      <trkpt lat="48.6537" lon="1.70741">
        <ele>165</ele>
        <time>2022-04-19T08:15:32Z</time>
      </trkpt>
      <trkpt lat="48.65379" lon="1.7074">
        <ele>165</ele>
        <time>2022-04-19T08:15:39Z</time>
      </trkpt>
      <trkpt lat="48.65389" lon="1.7074">
        <ele>165</ele>
        <time>2022-04-19T08:15:46Z</time>
      </trkpt>
      <trkpt lat="48.65398" lon="1.70739">
        <ele>165</ele>
        <time>2022-04-19T08:15:53Z</time>
      </trkpt>
      <trkpt lat="48.65409" lon="1.70737">
        <ele>165</ele>
        <time>2022-04-19T08:16:00Z</time>
      </trkpt>
      <trkpt lat="48.65419" lon="1.70737">
        <ele>165</ele>
        <time>2022-04-19T08:16:07Z</time>
      </trkpt>
      <trkpt lat="48.65428" lon="1.70735">
        <ele>165</ele>
        <time>2022-04-19T08:16:13Z</time>
      </trkpt>
      <trkpt lat="48.65437" lon="1.70735">
        <ele>165</ele>
        <time>2022-04-19T08:16:19Z</time>
      </trkpt>
      <trkpt lat="48.65447" lon="1.70734">
        <ele>165</ele>
        <time>2022-04-19T08:16:25Z</time>
      </trkpt>
      <trkpt lat="48.65457" lon="1.70734">
        <ele>165</ele>
        <time>2022-04-19T08:16:32Z</time>
      </trkpt>
      <trkpt lat="48.65466" lon="1.70733">
        <ele>165</ele>
        <time>2022-04-19T08:16:38Z</time>
      </trkpt>
      <trkpt lat="48.65477" lon="1.70733">
        <ele>165</ele>
        <time>2022-04-19T08:16:45Z</time>
      </trkpt>
      <trkpt lat="48.65486" lon="1.70732">
        <ele>165</ele>
        <time>2022-04-19T08:16:51Z</time>
      </trkpt>
      <trkpt lat="48.65495" lon="1.7073">
        <ele>165</ele>
        <time>2022-04-19T08:16:57Z</time>
      </trkpt>
      <trkpt lat="48.65504" lon="1.70724">
        <ele>165</ele>
        <time>2022-04-19T08:17:04Z</time>
      </trkpt>
      <trkpt lat="48.65512" lon="1.70714">
        <ele>165</ele>
        <time>2022-04-19T08:17:11Z</time>
      </trkpt>
      <trkpt lat="48.65517" lon="1.70701">
        <ele>165</ele>
        <time>2022-04-19T08:17:18Z</time>
      </trkpt>
      <trkpt lat="48.65521" lon="1.70688">
        <ele>165</ele>
        <time>2022-04-19T08:17:25Z</time>
      </trkpt>
      <trkpt lat="48.65528" lon="1.70677">
        <ele>165</ele>
        <time>2022-04-19T08:17:32Z</time>
      </trkpt>
      <trkpt lat="48.65536" lon="1.7067">
        <ele>165</ele>
        <time>2022-04-19T08:17:40Z</time>
      </trkpt>
      <trkpt lat="48.65542" lon="1.70658">
        <ele>165</ele>
        <time>2022-04-19T08:17:48Z</time>
      </trkpt>
      <trkpt lat="48.65545" lon="1.70643">
        <ele>165</ele>
        <time>2022-04-19T08:17:55Z</time>
      </trkpt>
      <trkpt lat="48.65546" lon="1.70628">
        <ele>164.6</ele>
        <time>2022-04-19T08:18:02Z</time>
      </trkpt>
      <trkpt lat="48.65547" lon="1.70613">
        <ele>164.1</ele>
        <time>2022-04-19T08:18:09Z</time>
      </trkpt>
      <trkpt lat="48.65548" lon="1.70599">
        <ele>164.1</ele>
        <time>2022-04-19T08:18:16Z</time>
      </trkpt>
      <trkpt lat="48.65547" lon="1.70584">
        <ele>164.3</ele>
        <time>2022-04-19T08:18:24Z</time>
      </trkpt>
      <trkpt lat="48.65545" lon="1.7057">
        <ele>164.4</ele>
        <time>2022-04-19T08:18:31Z</time>
      </trkpt>
      <trkpt lat="48.65542" lon="1.70557">
        <ele>164.5</ele>
        <time>2022-04-19T08:18:38Z</time>
      </trkpt>
      <trkpt lat="48.65541" lon="1.70541">
        <ele>164.2</ele>
        <time>2022-04-19T08:18:46Z</time>
      </trkpt>
      <trkpt lat="48.65549" lon="1.70534">
        <ele>164.1</ele>
        <time>2022-04-19T08:18:56Z</time>
      </trkpt>
      <trkpt lat="48.65559" lon="1.70532">
        <ele>164</ele>
        <time>2022-04-19T08:19:04Z</time>
      </trkpt>
      <trkpt lat="48.65568" lon="1.70526">
        <ele>164</ele>
        <time>2022-04-19T08:19:11Z</time>
      </trkpt>
      <trkpt lat="48.65577" lon="1.7052">
        <ele>164</ele>
        <time>2022-04-19T08:19:18Z</time>
      </trkpt>
      <trkpt lat="48.65585" lon="1.70513">
        <ele>163.9</ele>
        <time>2022-04-19T08:19:25Z</time>
      </trkpt>
      <trkpt lat="48.65593" lon="1.70507">
        <ele>163.6</ele>
        <time>2022-04-19T08:19:32Z</time>
      </trkpt>
      <trkpt lat="48.65601" lon="1.70498">
        <ele>163.4</ele>
        <time>2022-04-19T08:19:38Z</time>
      </trkpt>
      <trkpt lat="48.65608" lon="1.70488">
        <ele>163.5</ele>
        <time>2022-04-19T08:19:44Z</time>
      </trkpt>
      <trkpt lat="48.65617" lon="1.7048">
        <ele>163.6</ele>
        <time>2022-04-19T08:19:51Z</time>
      </trkpt>
      <trkpt lat="48.65624" lon="1.70473">
        <ele>163.5</ele>
        <time>2022-04-19T08:19:58Z</time>
      </trkpt>
      <trkpt lat="48.65632" lon="1.70466">
        <ele>163.2</ele>
        <time>2022-04-19T08:20:05Z</time>
      </trkpt>
      <trkpt lat="48.6564" lon="1.70457">
        <ele>163</ele>
        <time>2022-04-19T08:20:12Z</time>
      </trkpt>
      <trkpt lat="48.65648" lon="1.70448">
        <ele>162.7</ele>
        <time>2022-04-19T08:20:19Z</time>
      </trkpt>
      <trkpt lat="48.65656" lon="1.70441">
        <ele>162.3</ele>
        <time>2022-04-19T08:20:26Z</time>
      </trkpt>
      <trkpt lat="48.65663" lon="1.70433">
        <ele>161.7</ele>
        <time>2022-04-19T08:20:33Z</time>
      </trkpt>
      <trkpt lat="48.65672" lon="1.70426">
        <ele>161.1</ele>
        <time>2022-04-19T08:20:40Z</time>
      </trkpt>
      <trkpt lat="48.65681" lon="1.70419">
        <ele>160.5</ele>
        <time>2022-04-19T08:20:47Z</time>
      </trkpt>
      <trkpt lat="48.65689" lon="1.70411">
        <ele>160</ele>
        <time>2022-04-19T08:20:54Z</time>
      </trkpt>
      <trkpt lat="48.65698" lon="1.70406">
        <ele>159.4</ele>
        <time>2022-04-19T08:21:01Z</time>
      </trkpt>
      <trkpt lat="48.65707" lon="1.70401">
        <ele>158.6</ele>
        <time>2022-04-19T08:21:08Z</time>
      </trkpt>
      <trkpt lat="48.65714" lon="1.70393">
        <ele>157.7</ele>
        <time>2022-04-19T08:21:19Z</time>
      </trkpt>
      <trkpt lat="48.65718" lon="1.70381">
        <ele>157.3</ele>
        <time>2022-04-19T08:21:27Z</time>
      </trkpt>
      <trkpt lat="48.65711" lon="1.7039">
        <ele>157.8</ele>
        <time>2022-04-19T08:22:45Z</time>
      </trkpt>
      <trkpt lat="48.6572" lon="1.70396">
        <ele>157.4</ele>
        <time>2022-04-19T08:23:18Z</time>
      </trkpt>
      <trkpt lat="48.6573" lon="1.70397">
        <ele>156.7</ele>
        <time>2022-04-19T08:23:26Z</time>
      </trkpt>
      <trkpt lat="48.65738" lon="1.70403">
        <ele>156</ele>
        <time>2022-04-19T08:23:35Z</time>
      </trkpt>
      <trkpt lat="48.65747" lon="1.70406">
        <ele>155.3</ele>
        <time>2022-04-19T08:23:42Z</time>
      </trkpt>
      <trkpt lat="48.65756" lon="1.7041">
        <ele>154.3</ele>
        <time>2022-04-19T08:23:49Z</time>
      </trkpt>
      <trkpt lat="48.65765" lon="1.70413">
        <ele>153.4</ele>
        <time>2022-04-19T08:23:57Z</time>
      </trkpt>
      <trkpt lat="48.65774" lon="1.70415">
        <ele>152.4</ele>
        <time>2022-04-19T08:24:04Z</time>
      </trkpt>
      <trkpt lat="48.65784" lon="1.70418">
        <ele>151.3</ele>
        <time>2022-04-19T08:24:12Z</time>
      </trkpt>
      <trkpt lat="48.65793" lon="1.70418">
        <ele>150.3</ele>
        <time>2022-04-19T08:24:20Z</time>
      </trkpt>
      <trkpt lat="48.65802" lon="1.70422">
        <ele>149.4</ele>
        <time>2022-04-19T08:24:28Z</time>
      </trkpt>
      <trkpt lat="48.65811" lon="1.70423">
        <ele>148.2</ele>
        <time>2022-04-19T08:24:38Z</time>
      </trkpt>
      <trkpt lat="48.6582" lon="1.70426">
        <ele>146.8</ele>
        <time>2022-04-19T08:24:46Z</time>
      </trkpt>
      <trkpt lat="48.6583" lon="1.70429">
        <ele>145.4</ele>
        <time>2022-04-19T08:24:54Z</time>
      </trkpt>
      <trkpt lat="48.6584" lon="1.70433">
        <ele>144</ele>
        <time>2022-04-19T08:25:01Z</time>
      </trkpt>
      <trkpt lat="48.65849" lon="1.70437">
        <ele>142.7</ele>
        <time>2022-04-19T08:25:07Z</time>
      </trkpt>
      <trkpt lat="48.65859" lon="1.70442">
        <ele>141.4</ele>
        <time>2022-04-19T08:25:14Z</time>
      </trkpt>
      <trkpt lat="48.65868" lon="1.70439">
        <ele>140.3</ele>
        <time>2022-04-19T08:25:20Z</time>
      </trkpt>
      <trkpt lat="48.65877" lon="1.70434">
        <ele>139.3</ele>
        <time>2022-04-19T08:25:28Z</time>
      </trkpt>
      <trkpt lat="48.65887" lon="1.70432">
        <ele>138.2</ele>
        <time>2022-04-19T08:25:37Z</time>
      </trkpt>
      <trkpt lat="48.65894" lon="1.70424">
        <ele>137.5</ele>
        <time>2022-04-19T08:25:43Z</time>
      </trkpt>
      <trkpt lat="48.65903" lon="1.70419">
        <ele>136.5</ele>
        <time>2022-04-19T08:25:51Z</time>
      </trkpt>
      <trkpt lat="48.65912" lon="1.70422">
        <ele>135.6</ele>
        <time>2022-04-19T08:26:01Z</time>
      </trkpt>
      <trkpt lat="48.65921" lon="1.70424">
        <ele>134.9</ele>
        <time>2022-04-19T08:26:11Z</time>
      </trkpt>
      <trkpt lat="48.65931" lon="1.70424">
        <ele>134.2</ele>
        <time>2022-04-19T08:26:20Z</time>
      </trkpt>
      <trkpt lat="48.65941" lon="1.70422">
        <ele>133.4</ele>
        <time>2022-04-19T08:26:33Z</time>
      </trkpt>
      <trkpt lat="48.6595" lon="1.70417">
        <ele>132.8</ele>
        <time>2022-04-19T08:26:41Z</time>
      </trkpt>
      <trkpt lat="48.65959" lon="1.70412">
        <ele>132.3</ele>
        <time>2022-04-19T08:26:49Z</time>
      </trkpt>
      <trkpt lat="48.65968" lon="1.70405">
        <ele>131.7</ele>
        <time>2022-04-19T08:26:58Z</time>
      </trkpt>
      <trkpt lat="48.65976" lon="1.70397">
        <ele>131.3</ele>
        <time>2022-04-19T08:27:07Z</time>
      </trkpt>
      <trkpt lat="48.65982" lon="1.70387">
        <ele>131</ele>
        <time>2022-04-19T08:27:15Z</time>
      </trkpt>
      <trkpt lat="48.65992" lon="1.70383">
        <ele>131</ele>
        <time>2022-04-19T08:27:23Z</time>
      </trkpt>
      <trkpt lat="48.65999" lon="1.70373">
        <ele>131</ele>
        <time>2022-04-19T08:27:32Z</time>
      </trkpt>
      <trkpt lat="48.66005" lon="1.70361">
        <ele>131</ele>
        <time>2022-04-19T08:27:39Z</time>
      </trkpt>
      <trkpt lat="48.66013" lon="1.70352">
        <ele>131.1</ele>
        <time>2022-04-19T08:27:47Z</time>
      </trkpt>
      <trkpt lat="48.66021" lon="1.70343">
        <ele>131.5</ele>
        <time>2022-04-19T08:27:54Z</time>
      </trkpt>
      <trkpt lat="48.66029" lon="1.70336">
        <ele>132</ele>
        <time>2022-04-19T08:28:02Z</time>
      </trkpt>
      <trkpt lat="48.66037" lon="1.7033">
        <ele>132.7</ele>
        <time>2022-04-19T08:28:10Z</time>
      </trkpt>
      <trkpt lat="48.66046" lon="1.70323">
        <ele>133.5</ele>
        <time>2022-04-19T08:28:17Z</time>
      </trkpt>
      <trkpt lat="48.66054" lon="1.70316">
        <ele>134.5</ele>
        <time>2022-04-19T08:28:24Z</time>
      </trkpt>
      <trkpt lat="48.66063" lon="1.70311">
        <ele>135.6</ele>
        <time>2022-04-19T08:28:31Z</time>
      </trkpt>
      <trkpt lat="48.66071" lon="1.703">
        <ele>136.8</ele>
        <time>2022-04-19T08:28:40Z</time>
      </trkpt>
      <trkpt lat="48.66075" lon="1.70288">
        <ele>137.7</ele>
        <time>2022-04-19T08:28:48Z</time>
      </trkpt>
      <trkpt lat="48.66078" lon="1.70274">
        <ele>138.6</ele>
        <time>2022-04-19T08:28:59Z</time>
      </trkpt>
      <trkpt lat="48.66087" lon="1.70279">
        <ele>139.6</ele>
        <time>2022-04-19T08:29:25Z</time>
      </trkpt>
      <trkpt lat="48.66095" lon="1.70289">
        <ele>140.5</ele>
        <time>2022-04-19T08:29:34Z</time>
      </trkpt>
      <trkpt lat="48.66101" lon="1.70301">
        <ele>140.8</ele>
        <time>2022-04-19T08:29:42Z</time>
      </trkpt>
      <trkpt lat="48.66108" lon="1.70312">
        <ele>141.4</ele>
        <time>2022-04-19T08:29:49Z</time>
      </trkpt>
      <trkpt lat="48.66116" lon="1.7032">
        <ele>142.3</ele>
        <time>2022-04-19T08:29:55Z</time>
      </trkpt>
      <trkpt lat="48.66122" lon="1.7033">
        <ele>142.8</ele>
        <time>2022-04-19T08:30:02Z</time>
      </trkpt>
      <trkpt lat="48.66129" lon="1.70339">
        <ele>143.1</ele>
        <time>2022-04-19T08:30:08Z</time>
      </trkpt>
      <trkpt lat="48.66136" lon="1.70351">
        <ele>143.2</ele>
        <time>2022-04-19T08:30:16Z</time>
      </trkpt>
      <trkpt lat="48.66143" lon="1.70359">
        <ele>143.7</ele>
        <time>2022-04-19T08:30:23Z</time>
      </trkpt>
      <trkpt lat="48.6615" lon="1.70369">
        <ele>143.3</ele>
        <time>2022-04-19T08:30:30Z</time>
      </trkpt>
      <trkpt lat="48.66158" lon="1.70378">
        <ele>143.3</ele>
        <time>2022-04-19T08:30:37Z</time>
      </trkpt>
      <trkpt lat="48.66166" lon="1.70387">
        <ele>144</ele>
        <time>2022-04-19T08:30:45Z</time>
      </trkpt>
      <trkpt lat="48.66174" lon="1.70394">
        <ele>142.6</ele>
        <time>2022-04-19T08:30:53Z</time>
      </trkpt>
      <trkpt lat="48.66183" lon="1.70398">
        <ele>142.2</ele>
        <time>2022-04-19T08:30:58Z</time>
      </trkpt>
      <trkpt lat="48.66193" lon="1.70404">
        <ele>142.1</ele>
        <time>2022-04-19T08:31:05Z</time>
      </trkpt>
      <trkpt lat="48.66202" lon="1.7041">
        <ele>141.4</ele>
        <time>2022-04-19T08:31:11Z</time>
      </trkpt>
      <trkpt lat="48.66211" lon="1.70415">
        <ele>140.6</ele>
        <time>2022-04-19T08:31:17Z</time>
      </trkpt>
      <trkpt lat="48.66219" lon="1.70423">
        <ele>139.8</ele>
        <time>2022-04-19T08:31:24Z</time>
      </trkpt>
      <trkpt lat="48.66227" lon="1.70431">
        <ele>139.5</ele>
        <time>2022-04-19T08:31:31Z</time>
      </trkpt>
      <trkpt lat="48.66237" lon="1.70436">
        <ele>139.3</ele>
        <time>2022-04-19T08:31:37Z</time>
      </trkpt>
      <trkpt lat="48.66245" lon="1.70444">
        <ele>139</ele>
        <time>2022-04-19T08:31:45Z</time>
      </trkpt>
      <trkpt lat="48.66252" lon="1.70454">
        <ele>138.7</ele>
        <time>2022-04-19T08:31:52Z</time>
      </trkpt>
      <trkpt lat="48.6626" lon="1.70464">
        <ele>138.3</ele>
        <time>2022-04-19T08:32:00Z</time>
      </trkpt>
      <trkpt lat="48.66268" lon="1.70475">
        <ele>137.9</ele>
        <time>2022-04-19T08:32:06Z</time>
      </trkpt>
      <trkpt lat="48.66277" lon="1.70484">
        <ele>137.6</ele>
        <time>2022-04-19T08:32:12Z</time>
      </trkpt>
      <trkpt lat="48.66283" lon="1.70492">
        <ele>137.5</ele>
        <time>2022-04-19T08:32:18Z</time>
      </trkpt>
      <trkpt lat="48.66292" lon="1.70501">
        <ele>137.4</ele>
        <time>2022-04-19T08:32:25Z</time>
      </trkpt>
      <trkpt lat="48.66299" lon="1.70511">
        <ele>137</ele>
        <time>2022-04-19T08:32:31Z</time>
      </trkpt>
      <trkpt lat="48.66304" lon="1.70522">
        <ele>136.4</ele>
        <time>2022-04-19T08:32:37Z</time>
      </trkpt>
      <trkpt lat="48.66312" lon="1.7053">
        <ele>136.4</ele>
        <time>2022-04-19T08:32:43Z</time>
      </trkpt>
      <trkpt lat="48.66321" lon="1.70536">
        <ele>136.8</ele>
        <time>2022-04-19T08:32:50Z</time>
      </trkpt>
      <trkpt lat="48.6633" lon="1.7054">
        <ele>137.3</ele>
        <time>2022-04-19T08:32:56Z</time>
      </trkpt>
      <trkpt lat="48.66339" lon="1.70547">
        <ele>137.3</ele>
        <time>2022-04-19T08:33:04Z</time>
      </trkpt>
      <trkpt lat="48.66348" lon="1.70553">
        <ele>137.2</ele>
        <time>2022-04-19T08:33:11Z</time>
      </trkpt>
      <trkpt lat="48.66357" lon="1.70558">
        <ele>136.9</ele>
        <time>2022-04-19T08:33:17Z</time>
      </trkpt>
      <trkpt lat="48.66367" lon="1.70561">
        <ele>136.9</ele>
        <time>2022-04-19T08:33:24Z</time>
      </trkpt>
      <trkpt lat="48.66377" lon="1.70563">
        <ele>137</ele>
        <time>2022-04-19T08:33:30Z</time>
      </trkpt>
      <trkpt lat="48.66387" lon="1.70568">
        <ele>137.4</ele>
        <time>2022-04-19T08:33:36Z</time>
      </trkpt>
      <trkpt lat="48.66396" lon="1.70572">
        <ele>138</ele>
        <time>2022-04-19T08:33:43Z</time>
      </trkpt>
      <trkpt lat="48.66405" lon="1.70575">
        <ele>138.6</ele>
        <time>2022-04-19T08:33:49Z</time>
      </trkpt>
      <trkpt lat="48.66414" lon="1.70579">
        <ele>139</ele>
        <time>2022-04-19T08:33:56Z</time>
      </trkpt>
      <trkpt lat="48.66423" lon="1.70583">
        <ele>139</ele>
        <time>2022-04-19T08:34:03Z</time>
      </trkpt>
      <trkpt lat="48.66432" lon="1.70587">
        <ele>139</ele>
        <time>2022-04-19T08:34:10Z</time>
      </trkpt>
      <trkpt lat="48.66441" lon="1.70592">
        <ele>139</ele>
        <time>2022-04-19T08:34:17Z</time>
      </trkpt>
      <trkpt lat="48.66451" lon="1.70595">
        <ele>139.1</ele>
        <time>2022-04-19T08:34:23Z</time>
      </trkpt>
      <trkpt lat="48.6646" lon="1.70599">
        <ele>139.3</ele>
        <time>2022-04-19T08:34:30Z</time>
      </trkpt>
      <trkpt lat="48.66471" lon="1.70603">
        <ele>139.3</ele>
        <time>2022-04-19T08:34:39Z</time>
      </trkpt>
      <trkpt lat="48.6648" lon="1.70605">
        <ele>139</ele>
        <time>2022-04-19T08:34:45Z</time>
      </trkpt>
      <trkpt lat="48.66489" lon="1.70611">
        <ele>138.4</ele>
        <time>2022-04-19T08:34:52Z</time>
      </trkpt>
      <trkpt lat="48.66499" lon="1.70614">
        <ele>137.9</ele>
        <time>2022-04-19T08:34:57Z</time>
      </trkpt>
      <trkpt lat="48.66509" lon="1.70619">
        <ele>138</ele>
        <time>2022-04-19T08:35:03Z</time>
      </trkpt>
      <trkpt lat="48.66518" lon="1.70624">
        <ele>138.2</ele>
        <time>2022-04-19T08:35:09Z</time>
      </trkpt>
      <trkpt lat="48.66527" lon="1.70628">
        <ele>138.4</ele>
        <time>2022-04-19T08:35:15Z</time>
      </trkpt>
      <trkpt lat="48.66536" lon="1.70631">
        <ele>138.3</ele>
        <time>2022-04-19T08:35:21Z</time>
      </trkpt>
      <trkpt lat="48.66545" lon="1.70632">
        <ele>138.2</ele>
        <time>2022-04-19T08:35:29Z</time>
      </trkpt>
      <trkpt lat="48.66554" lon="1.7063">
        <ele>138.3</ele>
        <time>2022-04-19T08:35:35Z</time>
      </trkpt>
      <trkpt lat="48.66564" lon="1.70631">
        <ele>138</ele>
        <time>2022-04-19T08:35:43Z</time>
      </trkpt>
      <trkpt lat="48.66573" lon="1.70627">
        <ele>137.8</ele>
        <time>2022-04-19T08:35:52Z</time>
      </trkpt>
      <trkpt lat="48.66583" lon="1.70625">
        <ele>137.5</ele>
        <time>2022-04-19T08:36:00Z</time>
      </trkpt>
      <trkpt lat="48.66592" lon="1.70622">
        <ele>137.3</ele>
        <time>2022-04-19T08:36:06Z</time>
      </trkpt>
      <trkpt lat="48.66601" lon="1.70618">
        <ele>137.1</ele>
        <time>2022-04-19T08:36:12Z</time>
      </trkpt>
      <trkpt lat="48.6661" lon="1.70614">
        <ele>136.9</ele>
        <time>2022-04-19T08:36:19Z</time>
      </trkpt>
      <trkpt lat="48.66619" lon="1.70608">
        <ele>137</ele>
        <time>2022-04-19T08:36:27Z</time>
      </trkpt>
      <trkpt lat="48.66628" lon="1.70606">
        <ele>137</ele>
        <time>2022-04-19T08:36:35Z</time>
      </trkpt>
      <trkpt lat="48.66638" lon="1.70602">
        <ele>137</ele>
        <time>2022-04-19T08:36:42Z</time>
      </trkpt>
      <trkpt lat="48.66647" lon="1.70602">
        <ele>137.3</ele>
        <time>2022-04-19T08:36:50Z</time>
      </trkpt>
      <trkpt lat="48.66657" lon="1.706">
        <ele>137.6</ele>
        <time>2022-04-19T08:36:58Z</time>
      </trkpt>
      <trkpt lat="48.66667" lon="1.70596">
        <ele>138</ele>
        <time>2022-04-19T08:37:04Z</time>
      </trkpt>
      <trkpt lat="48.66675" lon="1.70589">
        <ele>138.8</ele>
        <time>2022-04-19T08:37:11Z</time>
      </trkpt>
      <trkpt lat="48.66685" lon="1.70588">
        <ele>139.8</ele>
        <time>2022-04-19T08:37:18Z</time>
      </trkpt>
      <trkpt lat="48.66696" lon="1.70585">
        <ele>141</ele>
        <time>2022-04-19T08:37:26Z</time>
      </trkpt>
      <trkpt lat="48.66704" lon="1.70578">
        <ele>141.9</ele>
        <time>2022-04-19T08:37:34Z</time>
      </trkpt>
      <trkpt lat="48.66714" lon="1.70579">
        <ele>142.6</ele>
        <time>2022-04-19T08:37:42Z</time>
      </trkpt>
      <trkpt lat="48.66724" lon="1.70579">
        <ele>143.5</ele>
        <time>2022-04-19T08:37:50Z</time>
      </trkpt>
      <trkpt lat="48.66734" lon="1.70575">
        <ele>144.9</ele>
        <time>2022-04-19T08:37:57Z</time>
      </trkpt>
      <trkpt lat="48.66742" lon="1.70566">
        <ele>146.4</ele>
        <time>2022-04-19T08:38:04Z</time>
      </trkpt>
      <trkpt lat="48.66751" lon="1.70559">
        <ele>147.8</ele>
        <time>2022-04-19T08:38:12Z</time>
      </trkpt>
      <trkpt lat="48.6676" lon="1.70556">
        <ele>148.7</ele>
        <time>2022-04-19T08:38:19Z</time>
      </trkpt>
      <trkpt lat="48.6677" lon="1.70553">
        <ele>149.8</ele>
        <time>2022-04-19T08:38:27Z</time>
      </trkpt>
      <trkpt lat="48.66779" lon="1.70549">
        <ele>150.9</ele>
        <time>2022-04-19T08:38:36Z</time>
      </trkpt>
      <trkpt lat="48.66788" lon="1.70546">
        <ele>151.6</ele>
        <time>2022-04-19T08:38:44Z</time>
      </trkpt>
      <trkpt lat="48.66797" lon="1.70542">
        <ele>152.4</ele>
        <time>2022-04-19T08:38:52Z</time>
      </trkpt>
      <trkpt lat="48.66807" lon="1.70537">
        <ele>152.9</ele>
        <time>2022-04-19T08:39:01Z</time>
      </trkpt>
      <trkpt lat="48.66816" lon="1.70536">
        <ele>151.8</ele>
        <time>2022-04-19T08:39:07Z</time>
      </trkpt>
      <trkpt lat="48.66826" lon="1.70536">
        <ele>150.7</ele>
        <time>2022-04-19T08:39:13Z</time>
      </trkpt>
      <trkpt lat="48.66834" lon="1.70529">
        <ele>149.9</ele>
        <time>2022-04-19T08:39:20Z</time>
      </trkpt>
      <trkpt lat="48.66844" lon="1.70527">
        <ele>148.8</ele>
        <time>2022-04-19T08:39:29Z</time>
      </trkpt>
      <trkpt lat="48.66854" lon="1.70527">
        <ele>147.8</ele>
        <time>2022-04-19T08:39:37Z</time>
      </trkpt>
      <trkpt lat="48.66863" lon="1.70522">
        <ele>147.1</ele>
        <time>2022-04-19T08:39:43Z</time>
      </trkpt>
      <trkpt lat="48.66873" lon="1.70518">
        <ele>146.5</ele>
        <time>2022-04-19T08:39:56Z</time>
      </trkpt>
      <trkpt lat="48.66882" lon="1.70517">
        <ele>145.9</ele>
        <time>2022-04-19T08:40:04Z</time>
      </trkpt>
      <trkpt lat="48.66891" lon="1.70511">
        <ele>145.6</ele>
        <time>2022-04-19T08:40:12Z</time>
      </trkpt>
      <trkpt lat="48.669" lon="1.70504">
        <ele>145.9</ele>
        <time>2022-04-19T08:40:19Z</time>
      </trkpt>
      <trkpt lat="48.66909" lon="1.70498">
        <ele>146.1</ele>
        <time>2022-04-19T08:40:28Z</time>
      </trkpt>
      <trkpt lat="48.66918" lon="1.70496">
        <ele>146.5</ele>
        <time>2022-04-19T08:40:34Z</time>
      </trkpt>
      <trkpt lat="48.66928" lon="1.70494">
        <ele>148.5</ele>
        <time>2022-04-19T08:40:41Z</time>
      </trkpt>
      <trkpt lat="48.66937" lon="1.7049">
        <ele>150.5</ele>
        <time>2022-04-19T08:40:48Z</time>
      </trkpt>
      <trkpt lat="48.66946" lon="1.70486">
        <ele>152.2</ele>
        <time>2022-04-19T08:40:55Z</time>
      </trkpt>
      <trkpt lat="48.66955" lon="1.7048">
        <ele>153.8</ele>
        <time>2022-04-19T08:41:05Z</time>
      </trkpt>
      <trkpt lat="48.66964" lon="1.70475">
        <ele>155.9</ele>
        <time>2022-04-19T08:41:13Z</time>
      </trkpt>
      <trkpt lat="48.66972" lon="1.70468">
        <ele>158.4</ele>
        <time>2022-04-19T08:41:24Z</time>
      </trkpt>
      <trkpt lat="48.66979" lon="1.70458">
        <ele>160.2</ele>
        <time>2022-04-19T08:41:40Z</time>
      </trkpt>
      <trkpt lat="48.66988" lon="1.7046">
        <ele>160.9</ele>
        <time>2022-04-19T08:44:51Z</time>
      </trkpt>
      <trkpt lat="48.66993" lon="1.70472">
        <ele>159.5</ele>
        <time>2022-04-19T08:45:04Z</time>
      </trkpt>
      <trkpt lat="48.66999" lon="1.70483">
        <ele>158.1</ele>
        <time>2022-04-19T08:45:13Z</time>
      </trkpt>
      <trkpt lat="48.67004" lon="1.70494">
        <ele>156.8</ele>
        <time>2022-04-19T08:45:22Z</time>
      </trkpt>
      <trkpt lat="48.67009" lon="1.70507">
        <ele>156</ele>
        <time>2022-04-19T08:45:31Z</time>
      </trkpt>
      <trkpt lat="48.67016" lon="1.70518">
        <ele>155.9</ele>
        <time>2022-04-19T08:45:38Z</time>
      </trkpt>
      <trkpt lat="48.67023" lon="1.70528">
        <ele>155.9</ele>
        <time>2022-04-19T08:45:44Z</time>
      </trkpt>
      <trkpt lat="48.67029" lon="1.70538">
        <ele>156.3</ele>
        <time>2022-04-19T08:45:53Z</time>
      </trkpt>
      <trkpt lat="48.67036" lon="1.70546">
        <ele>157.6</ele>
        <time>2022-04-19T08:46:02Z</time>
      </trkpt>
      <trkpt lat="48.67044" lon="1.70553">
        <ele>159.5</ele>
        <time>2022-04-19T08:46:09Z</time>
      </trkpt>
      <trkpt lat="48.67051" lon="1.70562">
        <ele>161.6</ele>
        <time>2022-04-19T08:46:16Z</time>
      </trkpt>
      <trkpt lat="48.67054" lon="1.70575">
        <ele>162.7</ele>
        <time>2022-04-19T08:46:24Z</time>
      </trkpt>
      <trkpt lat="48.67055" lon="1.7059">
        <ele>162.7</ele>
        <time>2022-04-19T08:46:31Z</time>
      </trkpt>
      <trkpt lat="48.67051" lon="1.70604">
        <ele>161.4</ele>
        <time>2022-04-19T08:46:39Z</time>
      </trkpt>
      <trkpt lat="48.67047" lon="1.70618">
        <ele>160.7</ele>
        <time>2022-04-19T08:46:46Z</time>
      </trkpt>
      <trkpt lat="48.6704" lon="1.70629">
        <ele>159.7</ele>
        <time>2022-04-19T08:46:53Z</time>
      </trkpt>
      <trkpt lat="48.67033" lon="1.7064">
        <ele>158.8</ele>
        <time>2022-04-19T08:47:00Z</time>
      </trkpt>
      <trkpt lat="48.67026" lon="1.70651">
        <ele>158.2</ele>
        <time>2022-04-19T08:47:08Z</time>
      </trkpt>
      <trkpt lat="48.67021" lon="1.70662">
        <ele>157.7</ele>
        <time>2022-04-19T08:47:16Z</time>
      </trkpt>
      <trkpt lat="48.67014" lon="1.70673">
        <ele>157.8</ele>
        <time>2022-04-19T08:47:23Z</time>
      </trkpt>
      <trkpt lat="48.67009" lon="1.70684">
        <ele>158.4</ele>
        <time>2022-04-19T08:47:29Z</time>
      </trkpt>
      <trkpt lat="48.67003" lon="1.70696">
        <ele>159.3</ele>
        <time>2022-04-19T08:47:35Z</time>
      </trkpt>
      <trkpt lat="48.66997" lon="1.70707">
        <ele>159.1</ele>
        <time>2022-04-19T08:47:41Z</time>
      </trkpt>
      <trkpt lat="48.6699" lon="1.70717">
        <ele>159</ele>
        <time>2022-04-19T08:47:47Z</time>
      </trkpt>
      <trkpt lat="48.66983" lon="1.70728">
        <ele>159</ele>
        <time>2022-04-19T08:47:54Z</time>
      </trkpt>
      <trkpt lat="48.66976" lon="1.70738">
        <ele>158.9</ele>
        <time>2022-04-19T08:48:00Z</time>
      </trkpt>
      <trkpt lat="48.6697" lon="1.70749">
        <ele>158.7</ele>
        <time>2022-04-19T08:48:06Z</time>
      </trkpt>
      <trkpt lat="48.66963" lon="1.70759">
        <ele>158.3</ele>
        <time>2022-04-19T08:48:12Z</time>
      </trkpt>
      <trkpt lat="48.66955" lon="1.70768">
        <ele>157.8</ele>
        <time>2022-04-19T08:48:18Z</time>
      </trkpt>
      <trkpt lat="48.66949" lon="1.70778">
        <ele>157.5</ele>
        <time>2022-04-19T08:48:24Z</time>
      </trkpt>
      <trkpt lat="48.66942" lon="1.70789">
        <ele>156.5</ele>
        <time>2022-04-19T08:48:31Z</time>
      </trkpt>
      <trkpt lat="48.66934" lon="1.70799">
        <ele>155.5</ele>
        <time>2022-04-19T08:48:38Z</time>
      </trkpt>
      <trkpt lat="48.66927" lon="1.70809">
        <ele>154.4</ele>
        <time>2022-04-19T08:48:45Z</time>
      </trkpt>
      <trkpt lat="48.6692" lon="1.7082">
        <ele>153</ele>
        <time>2022-04-19T08:48:52Z</time>
      </trkpt>
      <trkpt lat="48.66913" lon="1.70829">
        <ele>151.7</ele>
        <time>2022-04-19T08:48:59Z</time>
      </trkpt>
      <trkpt lat="48.66906" lon="1.70839">
        <ele>150.8</ele>
        <time>2022-04-19T08:49:06Z</time>
      </trkpt>
      <trkpt lat="48.66899" lon="1.70851">
        <ele>149.9</ele>
        <time>2022-04-19T08:49:13Z</time>
      </trkpt>
      <trkpt lat="48.66892" lon="1.70861">
        <ele>149.2</ele>
        <time>2022-04-19T08:49:20Z</time>
      </trkpt>
      <trkpt lat="48.66885" lon="1.70872">
        <ele>148.9</ele>
        <time>2022-04-19T08:49:27Z</time>
      </trkpt>
      <trkpt lat="48.66877" lon="1.7088">
        <ele>148.9</ele>
        <time>2022-04-19T08:49:34Z</time>
      </trkpt>
      <trkpt lat="48.66869" lon="1.70891">
        <ele>149</ele>
        <time>2022-04-19T08:49:43Z</time>
      </trkpt>
      <trkpt lat="48.66862" lon="1.709">
        <ele>149</ele>
        <time>2022-04-19T08:49:51Z</time>
      </trkpt>
      <trkpt lat="48.66857" lon="1.70912">
        <ele>148.8</ele>
        <time>2022-04-19T08:49:59Z</time>
      </trkpt>
      <trkpt lat="48.66849" lon="1.70921">
        <ele>148.4</ele>
        <time>2022-04-19T08:50:07Z</time>
      </trkpt>
      <trkpt lat="48.6684" lon="1.70929">
        <ele>147.8</ele>
        <time>2022-04-19T08:50:13Z</time>
      </trkpt>
      <trkpt lat="48.66834" lon="1.7094">
        <ele>147.2</ele>
        <time>2022-04-19T08:50:20Z</time>
      </trkpt>
      <trkpt lat="48.66828" lon="1.70952">
        <ele>146.8</ele>
        <time>2022-04-19T08:50:26Z</time>
      </trkpt>
      <trkpt lat="48.66824" lon="1.70964">
        <ele>146.4</ele>
        <time>2022-04-19T08:50:36Z</time>
      </trkpt>
      <trkpt lat="48.66827" lon="1.70979">
        <ele>146.6</ele>
        <time>2022-04-19T08:50:47Z</time>
      </trkpt>
      <trkpt lat="48.66832" lon="1.70991">
        <ele>147</ele>
        <time>2022-04-19T08:51:14Z</time>
      </trkpt>
      <trkpt lat="48.66838" lon="1.71002">
        <ele>147.1</ele>
        <time>2022-04-19T08:51:21Z</time>
      </trkpt>
      <trkpt lat="48.66846" lon="1.71012">
        <ele>147</ele>
        <time>2022-04-19T08:51:29Z</time>
      </trkpt>
      <trkpt lat="48.66852" lon="1.71023">
        <ele>146.8</ele>
        <time>2022-04-19T08:51:37Z</time>
      </trkpt>
      <trkpt lat="48.66859" lon="1.71034">
        <ele>146.7</ele>
        <time>2022-04-19T08:51:45Z</time>
      </trkpt>
      <trkpt lat="48.66865" lon="1.71044">
        <ele>146.5</ele>
        <time>2022-04-19T08:51:53Z</time>
      </trkpt>
      <trkpt lat="48.66872" lon="1.71054">
        <ele>146.4</ele>
        <time>2022-04-19T08:52:00Z</time>
      </trkpt>
      <trkpt lat="48.66879" lon="1.71065">
        <ele>146.4</ele>
        <time>2022-04-19T08:52:06Z</time>
      </trkpt>
      <trkpt lat="48.66885" lon="1.71075">
        <ele>146.3</ele>
        <time>2022-04-19T08:52:12Z</time>
      </trkpt>
      <trkpt lat="48.66892" lon="1.71084">
        <ele>146</ele>
        <time>2022-04-19T08:52:18Z</time>
      </trkpt>
      <trkpt lat="48.66901" lon="1.71091">
        <ele>145.7</ele>
        <time>2022-04-19T08:52:28Z</time>
      </trkpt>
      <trkpt lat="48.66908" lon="1.711">
        <ele>145.4</ele>
        <time>2022-04-19T08:52:40Z</time>
      </trkpt>
      <trkpt lat="48.66914" lon="1.71111">
        <ele>145</ele>
        <time>2022-04-19T08:52:50Z</time>
      </trkpt>
      <trkpt lat="48.6692" lon="1.71121">
        <ele>145.2</ele>
        <time>2022-04-19T08:52:58Z</time>
      </trkpt>
      <trkpt lat="48.66928" lon="1.71132">
        <ele>145.5</ele>
        <time>2022-04-19T08:53:06Z</time>
      </trkpt>
      <trkpt lat="48.66934" lon="1.71143">
        <ele>145.5</ele>
        <time>2022-04-19T08:53:12Z</time>
      </trkpt>
      <trkpt lat="48.66941" lon="1.71155">
        <ele>145.3</ele>
        <time>2022-04-19T08:53:19Z</time>
      </trkpt>
      <trkpt lat="48.66949" lon="1.71165">
        <ele>145.4</ele>
        <time>2022-04-19T08:53:26Z</time>
      </trkpt>
      <trkpt lat="48.66956" lon="1.71174">
        <ele>145.6</ele>
        <time>2022-04-19T08:53:33Z</time>
      </trkpt>
      <trkpt lat="48.66964" lon="1.71184">
        <ele>145.8</ele>
        <time>2022-04-19T08:53:40Z</time>
      </trkpt>
      <trkpt lat="48.6697" lon="1.71196">
        <ele>145.8</ele>
        <time>2022-04-19T08:53:47Z</time>
      </trkpt>
      <trkpt lat="48.66976" lon="1.71207">
        <ele>146.2</ele>
        <time>2022-04-19T08:53:54Z</time>
      </trkpt>
      <trkpt lat="48.66984" lon="1.71216">
        <ele>146.5</ele>
        <time>2022-04-19T08:54:01Z</time>
      </trkpt>
      <trkpt lat="48.66992" lon="1.71225">
        <ele>146.6</ele>
        <time>2022-04-19T08:54:08Z</time>
      </trkpt>
      <trkpt lat="48.66998" lon="1.71236">
        <ele>146.4</ele>
        <time>2022-04-19T08:54:14Z</time>
      </trkpt>
      <trkpt lat="48.67004" lon="1.71246">
        <ele>146.3</ele>
        <time>2022-04-19T08:54:22Z</time>
      </trkpt>
      <trkpt lat="48.6701" lon="1.71256">
        <ele>146.4</ele>
        <time>2022-04-19T08:54:30Z</time>
      </trkpt>
      <trkpt lat="48.67017" lon="1.71268">
        <ele>146.6</ele>
        <time>2022-04-19T08:54:39Z</time>
      </trkpt>
      <trkpt lat="48.67023" lon="1.71278">
        <ele>146.8</ele>
        <time>2022-04-19T08:54:46Z</time>
      </trkpt>
      <trkpt lat="48.67032" lon="1.71287">
        <ele>147.2</ele>
        <time>2022-04-19T08:54:51Z</time>
      </trkpt>
      <trkpt lat="48.67038" lon="1.71296">
        <ele>147.5</ele>
        <time>2022-04-19T08:54:56Z</time>
      </trkpt>
      <trkpt lat="48.67046" lon="1.71306">
        <ele>147.6</ele>
        <time>2022-04-19T08:55:02Z</time>
      </trkpt>
      <trkpt lat="48.67054" lon="1.71315">
        <ele>148.3</ele>
        <time>2022-04-19T08:55:08Z</time>
      </trkpt>
      <trkpt lat="48.67061" lon="1.71324">
        <ele>148.8</ele>
        <time>2022-04-19T08:55:13Z</time>
      </trkpt>
      <trkpt lat="48.67068" lon="1.71332">
        <ele>149</ele>
        <time>2022-04-19T08:55:18Z</time>
      </trkpt>
      <trkpt lat="48.67075" lon="1.71342">
        <ele>148.9</ele>
        <time>2022-04-19T08:55:24Z</time>
      </trkpt>
      <trkpt lat="48.67082" lon="1.71352">
        <ele>149</ele>
        <time>2022-04-19T08:55:30Z</time>
      </trkpt>
      <trkpt lat="48.67089" lon="1.71361">
        <ele>149.2</ele>
        <time>2022-04-19T08:55:36Z</time>
      </trkpt>
      <trkpt lat="48.67098" lon="1.71369">
        <ele>149.2</ele>
        <time>2022-04-19T08:55:48Z</time>
      </trkpt>
      <trkpt lat="48.67105" lon="1.71379">
        <ele>149.1</ele>
        <time>2022-04-19T08:55:56Z</time>
      </trkpt>
      <trkpt lat="48.67111" lon="1.71388">
        <ele>149.1</ele>
        <time>2022-04-19T08:56:02Z</time>
      </trkpt>
      <trkpt lat="48.67118" lon="1.71399">
        <ele>149.4</ele>
        <time>2022-04-19T08:56:09Z</time>
      </trkpt>
      <trkpt lat="48.67125" lon="1.71408">
        <ele>149.7</ele>
        <time>2022-04-19T08:56:21Z</time>
      </trkpt>
      <trkpt lat="48.67132" lon="1.71418">
        <ele>149.7</ele>
        <time>2022-04-19T08:56:31Z</time>
      </trkpt>
      <trkpt lat="48.67137" lon="1.7143">
        <ele>149.9</ele>
        <time>2022-04-19T08:56:39Z</time>
      </trkpt>
      <trkpt lat="48.67144" lon="1.71441">
        <ele>150.4</ele>
        <time>2022-04-19T08:56:45Z</time>
      </trkpt>
      <trkpt lat="48.6715" lon="1.71451">
        <ele>150.8</ele>
        <time>2022-04-19T08:56:53Z</time>
      </trkpt>
      <trkpt lat="48.67157" lon="1.71461">
        <ele>151.3</ele>
        <time>2022-04-19T08:57:00Z</time>
      </trkpt>
      <trkpt lat="48.67164" lon="1.71471">
        <ele>151.8</ele>
        <time>2022-04-19T08:57:07Z</time>
      </trkpt>
      <trkpt lat="48.67172" lon="1.71479">
        <ele>152.1</ele>
        <time>2022-04-19T08:57:14Z</time>
      </trkpt>
      <trkpt lat="48.6718" lon="1.71489">
        <ele>152.3</ele>
        <time>2022-04-19T08:57:20Z</time>
      </trkpt>
      <trkpt lat="48.67188" lon="1.71501">
        <ele>152.5</ele>
        <time>2022-04-19T08:57:26Z</time>
      </trkpt>
      <trkpt lat="48.67196" lon="1.7151">
        <ele>152.7</ele>
        <time>2022-04-19T08:57:31Z</time>
      </trkpt>
      <trkpt lat="48.67203" lon="1.71518">
        <ele>153</ele>
        <time>2022-04-19T08:57:37Z</time>
      </trkpt>
      <trkpt lat="48.6721" lon="1.71528">
        <ele>153.1</ele>
        <time>2022-04-19T08:57:44Z</time>
      </trkpt>
      <trkpt lat="48.67217" lon="1.71537">
        <ele>153.6</ele>
        <time>2022-04-19T08:57:50Z</time>
      </trkpt>
      <trkpt lat="48.67225" lon="1.71546">
        <ele>154.2</ele>
        <time>2022-04-19T08:57:56Z</time>
      </trkpt>
      <trkpt lat="48.67232" lon="1.71557">
        <ele>154.7</ele>
        <time>2022-04-19T08:58:05Z</time>
      </trkpt>
      <trkpt lat="48.67241" lon="1.71566">
        <ele>155</ele>
        <time>2022-04-19T08:58:12Z</time>
      </trkpt>
      <trkpt lat="48.67248" lon="1.71575">
        <ele>155.1</ele>
        <time>2022-04-19T08:58:17Z</time>
      </trkpt>
      <trkpt lat="48.67255" lon="1.71586">
        <ele>155.6</ele>
        <time>2022-04-19T08:58:23Z</time>
      </trkpt>
      <trkpt lat="48.67262" lon="1.71596">
        <ele>156.3</ele>
        <time>2022-04-19T08:58:29Z</time>
      </trkpt>
      <trkpt lat="48.6727" lon="1.71605">
        <ele>157.1</ele>
        <time>2022-04-19T08:58:36Z</time>
      </trkpt>
      <trkpt lat="48.67278" lon="1.71615">
        <ele>157.8</ele>
        <time>2022-04-19T08:58:44Z</time>
      </trkpt>
      <trkpt lat="48.67285" lon="1.71625">
        <ele>157.7</ele>
        <time>2022-04-19T08:58:51Z</time>
      </trkpt>
      <trkpt lat="48.67291" lon="1.71634">
        <ele>157.8</ele>
        <time>2022-04-19T08:58:58Z</time>
      </trkpt>
      <trkpt lat="48.67299" lon="1.71642">
        <ele>158.1</ele>
        <time>2022-04-19T08:59:05Z</time>
      </trkpt>
      <trkpt lat="48.67308" lon="1.71651">
        <ele>158.3</ele>
        <time>2022-04-19T08:59:12Z</time>
      </trkpt>
      <trkpt lat="48.67314" lon="1.71661">
        <ele>158.1</ele>
        <time>2022-04-19T08:59:18Z</time>
      </trkpt>
      <trkpt lat="48.67322" lon="1.71671">
        <ele>157.8</ele>
        <time>2022-04-19T08:59:24Z</time>
      </trkpt>
      <trkpt lat="48.67328" lon="1.71682">
        <ele>157.5</ele>
        <time>2022-04-19T08:59:32Z</time>
      </trkpt>
      <trkpt lat="48.67335" lon="1.71691">
        <ele>157.3</ele>
        <time>2022-04-19T08:59:37Z</time>
      </trkpt>
      <trkpt lat="48.67342" lon="1.717">
        <ele>156.6</ele>
        <time>2022-04-19T08:59:43Z</time>
      </trkpt>
      <trkpt lat="48.67349" lon="1.7171">
        <ele>156.2</ele>
        <time>2022-04-19T08:59:49Z</time>
      </trkpt>
      <trkpt lat="48.67356" lon="1.7172">
        <ele>155.9</ele>
        <time>2022-04-19T08:59:56Z</time>
      </trkpt>
      <trkpt lat="48.67364" lon="1.71729">
        <ele>155.5</ele>
        <time>2022-04-19T09:00:01Z</time>
      </trkpt>
      <trkpt lat="48.67372" lon="1.71738">
        <ele>154.8</ele>
        <time>2022-04-19T09:00:07Z</time>
      </trkpt>
      <trkpt lat="48.6738" lon="1.71748">
        <ele>154.2</ele>
        <time>2022-04-19T09:00:14Z</time>
      </trkpt>
      <trkpt lat="48.67388" lon="1.71756">
        <ele>153.8</ele>
        <time>2022-04-19T09:00:21Z</time>
      </trkpt>
      <trkpt lat="48.67396" lon="1.71764">
        <ele>153.6</ele>
        <time>2022-04-19T09:00:27Z</time>
      </trkpt>
      <trkpt lat="48.67404" lon="1.71773">
        <ele>153.3</ele>
        <time>2022-04-19T09:00:33Z</time>
      </trkpt>
      <trkpt lat="48.67412" lon="1.71781">
        <ele>152.9</ele>
        <time>2022-04-19T09:00:42Z</time>
      </trkpt>
      <trkpt lat="48.6742" lon="1.71788">
        <ele>152.6</ele>
        <time>2022-04-19T09:00:49Z</time>
      </trkpt>
      <trkpt lat="48.67427" lon="1.718">
        <ele>152.2</ele>
        <time>2022-04-19T09:00:56Z</time>
      </trkpt>
      <trkpt lat="48.67432" lon="1.71811">
        <ele>151.9</ele>
        <time>2022-04-19T09:01:03Z</time>
      </trkpt>
      <trkpt lat="48.6744" lon="1.71821">
        <ele>151.5</ele>
        <time>2022-04-19T09:01:12Z</time>
      </trkpt>
      <trkpt lat="48.67448" lon="1.7183">
        <ele>151</ele>
        <time>2022-04-19T09:01:19Z</time>
      </trkpt>
      <trkpt lat="48.67455" lon="1.71839">
        <ele>150.6</ele>
        <time>2022-04-19T09:01:26Z</time>
      </trkpt>
      <trkpt lat="48.67462" lon="1.71847">
        <ele>150</ele>
        <time>2022-04-19T09:01:33Z</time>
      </trkpt>
      <trkpt lat="48.6747" lon="1.71853">
        <ele>149.4</ele>
        <time>2022-04-19T09:01:39Z</time>
      </trkpt>
      <trkpt lat="48.67478" lon="1.71862">
        <ele>148.8</ele>
        <time>2022-04-19T09:01:46Z</time>
      </trkpt>
      <trkpt lat="48.67485" lon="1.71873">
        <ele>148.3</ele>
        <time>2022-04-19T09:01:52Z</time>
      </trkpt>
      <trkpt lat="48.67491" lon="1.71883">
        <ele>148.1</ele>
        <time>2022-04-19T09:01:59Z</time>
      </trkpt>
      <trkpt lat="48.67497" lon="1.71895">
        <ele>147.8</ele>
        <time>2022-04-19T09:02:07Z</time>
      </trkpt>
      <trkpt lat="48.67502" lon="1.71907">
        <ele>147.5</ele>
        <time>2022-04-19T09:02:13Z</time>
      </trkpt>
      <trkpt lat="48.67506" lon="1.71921">
        <ele>147.6</ele>
        <time>2022-04-19T09:02:21Z</time>
      </trkpt>
      <trkpt lat="48.67507" lon="1.71934">
        <ele>147.8</ele>
        <time>2022-04-19T09:02:30Z</time>
      </trkpt>
      <trkpt lat="48.67511" lon="1.71947">
        <ele>148.1</ele>
        <time>2022-04-19T09:02:37Z</time>
      </trkpt>
      <trkpt lat="48.67515" lon="1.71961">
        <ele>148.6</ele>
        <time>2022-04-19T09:02:44Z</time>
      </trkpt>
      <trkpt lat="48.67518" lon="1.71976">
        <ele>149</ele>
        <time>2022-04-19T09:02:51Z</time>
      </trkpt>
      <trkpt lat="48.67522" lon="1.71989">
        <ele>149.3</ele>
        <time>2022-04-19T09:02:58Z</time>
      </trkpt>
      <trkpt lat="48.67525" lon="1.72004">
        <ele>149.5</ele>
        <time>2022-04-19T09:03:05Z</time>
      </trkpt>
      <trkpt lat="48.67527" lon="1.72017">
        <ele>149.3</ele>
        <time>2022-04-19T09:03:11Z</time>
      </trkpt>
      <trkpt lat="48.6753" lon="1.7203">
        <ele>149.3</ele>
        <time>2022-04-19T09:03:17Z</time>
      </trkpt>
      <trkpt lat="48.67531" lon="1.72044">
        <ele>149.4</ele>
        <time>2022-04-19T09:03:23Z</time>
      </trkpt>
      <trkpt lat="48.67534" lon="1.72058">
        <ele>149.6</ele>
        <time>2022-04-19T09:03:30Z</time>
      </trkpt>
      <trkpt lat="48.67535" lon="1.72072">
        <ele>149.8</ele>
        <time>2022-04-19T09:03:37Z</time>
      </trkpt>
      <trkpt lat="48.67536" lon="1.72087">
        <ele>150</ele>
        <time>2022-04-19T09:03:44Z</time>
      </trkpt>
      <trkpt lat="48.67532" lon="1.72101">
        <ele>150</ele>
        <time>2022-04-19T09:03:50Z</time>
      </trkpt>
      <trkpt lat="48.6753" lon="1.72115">
        <ele>150.5</ele>
        <time>2022-04-19T09:03:57Z</time>
      </trkpt>
      <trkpt lat="48.67524" lon="1.72127">
        <ele>150.8</ele>
        <time>2022-04-19T09:04:06Z</time>
      </trkpt>
      <trkpt lat="48.67518" lon="1.72139">
        <ele>151</ele>
        <time>2022-04-19T09:04:13Z</time>
      </trkpt>
      <trkpt lat="48.67511" lon="1.72147">
        <ele>150.6</ele>
        <time>2022-04-19T09:04:19Z</time>
      </trkpt>
      <trkpt lat="48.67506" lon="1.7216">
        <ele>150.5</ele>
        <time>2022-04-19T09:04:27Z</time>
      </trkpt>
      <trkpt lat="48.675" lon="1.72172">
        <ele>150.4</ele>
        <time>2022-04-19T09:04:34Z</time>
      </trkpt>
      <trkpt lat="48.67493" lon="1.72184">
        <ele>150.7</ele>
        <time>2022-04-19T09:04:42Z</time>
      </trkpt>
      <trkpt lat="48.67487" lon="1.72194">
        <ele>150.6</ele>
        <time>2022-04-19T09:04:48Z</time>
      </trkpt>
      <trkpt lat="48.67481" lon="1.72204">
        <ele>150.7</ele>
        <time>2022-04-19T09:04:55Z</time>
      </trkpt>
      <trkpt lat="48.67474" lon="1.72214">
        <ele>150.6</ele>
        <time>2022-04-19T09:05:02Z</time>
      </trkpt>
      <trkpt lat="48.67466" lon="1.72224">
        <ele>150.2</ele>
        <time>2022-04-19T09:05:09Z</time>
      </trkpt>
      <trkpt lat="48.67459" lon="1.72236">
        <ele>150.1</ele>
        <time>2022-04-19T09:05:16Z</time>
      </trkpt>
      <trkpt lat="48.67456" lon="1.7225">
        <ele>150.5</ele>
        <time>2022-04-19T09:05:23Z</time>
      </trkpt>
      <trkpt lat="48.67452" lon="1.72264">
        <ele>150.1</ele>
        <time>2022-04-19T09:05:31Z</time>
      </trkpt>
      <trkpt lat="48.67452" lon="1.72279">
        <ele>150.7</ele>
        <time>2022-04-19T09:05:39Z</time>
      </trkpt>
      <trkpt lat="48.67452" lon="1.72293">
        <ele>151</ele>
        <time>2022-04-19T09:05:45Z</time>
      </trkpt>
      <trkpt lat="48.67451" lon="1.72307">
        <ele>151.2</ele>
        <time>2022-04-19T09:05:52Z</time>
      </trkpt>
      <trkpt lat="48.67454" lon="1.7232">
        <ele>151.6</ele>
        <time>2022-04-19T09:05:58Z</time>
      </trkpt>
      <trkpt lat="48.67455" lon="1.72334">
        <ele>151.5</ele>
        <time>2022-04-19T09:06:05Z</time>
      </trkpt>
      <trkpt lat="48.6745" lon="1.72347">
        <ele>150.6</ele>
        <time>2022-04-19T09:06:13Z</time>
      </trkpt>
      <trkpt lat="48.67447" lon="1.72362">
        <ele>149.6</ele>
        <time>2022-04-19T09:06:20Z</time>
      </trkpt>
      <trkpt lat="48.67443" lon="1.72376">
        <ele>148.8</ele>
        <time>2022-04-19T09:06:30Z</time>
      </trkpt>
      <trkpt lat="48.67437" lon="1.72387">
        <ele>147.7</ele>
        <time>2022-04-19T09:06:37Z</time>
      </trkpt>
      <trkpt lat="48.67433" lon="1.724">
        <ele>146.5</ele>
        <time>2022-04-19T09:06:44Z</time>
      </trkpt>
      <trkpt lat="48.67428" lon="1.72411">
        <ele>145.3</ele>
        <time>2022-04-19T09:06:52Z</time>
      </trkpt>
      <trkpt lat="48.67422" lon="1.72424">
        <ele>145.3</ele>
        <time>2022-04-19T09:07:01Z</time>
      </trkpt>
      <trkpt lat="48.67413" lon="1.72429">
        <ele>145.2</ele>
        <time>2022-04-19T09:07:07Z</time>
      </trkpt>
      <trkpt lat="48.67404" lon="1.72432">
        <ele>145.2</ele>
        <time>2022-04-19T09:07:14Z</time>
      </trkpt>
      <trkpt lat="48.67396" lon="1.72443">
        <ele>145.5</ele>
        <time>2022-04-19T09:07:21Z</time>
      </trkpt>
      <trkpt lat="48.67391" lon="1.72454">
        <ele>145.6</ele>
        <time>2022-04-19T09:07:27Z</time>
      </trkpt>
      <trkpt lat="48.67386" lon="1.72467">
        <ele>145.4</ele>
        <time>2022-04-19T09:07:35Z</time>
      </trkpt>
      <trkpt lat="48.6738" lon="1.7248">
        <ele>145.5</ele>
        <time>2022-04-19T09:07:42Z</time>
      </trkpt>
      <trkpt lat="48.67375" lon="1.72492">
        <ele>146.1</ele>
        <time>2022-04-19T09:07:50Z</time>
      </trkpt>
      <trkpt lat="48.67371" lon="1.72505">
        <ele>146.9</ele>
        <time>2022-04-19T09:07:57Z</time>
      </trkpt>
      <trkpt lat="48.67367" lon="1.72517">
        <ele>147.8</ele>
        <time>2022-04-19T09:08:04Z</time>
      </trkpt>
      <trkpt lat="48.67363" lon="1.7253">
        <ele>148.2</ele>
        <time>2022-04-19T09:08:12Z</time>
      </trkpt>
      <trkpt lat="48.67357" lon="1.72541">
        <ele>147.3</ele>
        <time>2022-04-19T09:08:19Z</time>
      </trkpt>
      <trkpt lat="48.67353" lon="1.72554">
        <ele>146.9</ele>
        <time>2022-04-19T09:08:26Z</time>
      </trkpt>
      <trkpt lat="48.67351" lon="1.72568">
        <ele>145.8</ele>
        <time>2022-04-19T09:08:33Z</time>
      </trkpt>
      <trkpt lat="48.67346" lon="1.72581">
        <ele>144.4</ele>
        <time>2022-04-19T09:08:40Z</time>
      </trkpt>
      <trkpt lat="48.67341" lon="1.72593">
        <ele>143.7</ele>
        <time>2022-04-19T09:08:47Z</time>
      </trkpt>
      <trkpt lat="48.67338" lon="1.72607">
        <ele>143.4</ele>
        <time>2022-04-19T09:08:53Z</time>
      </trkpt>
      <trkpt lat="48.67334" lon="1.72621">
        <ele>143.4</ele>
        <time>2022-04-19T09:09:00Z</time>
      </trkpt>
      <trkpt lat="48.67329" lon="1.72634">
        <ele>143.5</ele>
        <time>2022-04-19T09:09:07Z</time>
      </trkpt>
      <trkpt lat="48.67325" lon="1.72647">
        <ele>143.6</ele>
        <time>2022-04-19T09:09:14Z</time>
      </trkpt>
      <trkpt lat="48.67322" lon="1.72661">
        <ele>143.7</ele>
        <time>2022-04-19T09:09:20Z</time>
      </trkpt>
      <trkpt lat="48.67319" lon="1.72675">
        <ele>143.4</ele>
        <time>2022-04-19T09:09:27Z</time>
      </trkpt>
      <trkpt lat="48.67315" lon="1.72688">
        <ele>143</ele>
        <time>2022-04-19T09:09:35Z</time>
      </trkpt>
      <trkpt lat="48.67309" lon="1.727">
        <ele>142.5</ele>
        <time>2022-04-19T09:09:42Z</time>
      </trkpt>
      <trkpt lat="48.67307" lon="1.72714">
        <ele>142.8</ele>
        <time>2022-04-19T09:09:48Z</time>
      </trkpt>
      <trkpt lat="48.67304" lon="1.72728">
        <ele>142.9</ele>
        <time>2022-04-19T09:09:55Z</time>
      </trkpt>
      <trkpt lat="48.673" lon="1.72742">
        <ele>142.8</ele>
        <time>2022-04-19T09:10:02Z</time>
      </trkpt>
      <trkpt lat="48.67293" lon="1.72752">
        <ele>142.6</ele>
        <time>2022-04-19T09:10:09Z</time>
      </trkpt>
      <trkpt lat="48.67291" lon="1.72765">
        <ele>142.7</ele>
        <time>2022-04-19T09:10:15Z</time>
      </trkpt>
      <trkpt lat="48.67292" lon="1.72779">
        <ele>143</ele>
        <time>2022-04-19T09:10:20Z</time>
      </trkpt>
      <trkpt lat="48.67288" lon="1.72792">
        <ele>142.9</ele>
        <time>2022-04-19T09:10:26Z</time>
      </trkpt>
      <trkpt lat="48.67286" lon="1.72805">
        <ele>142.9</ele>
        <time>2022-04-19T09:10:37Z</time>
      </trkpt>
      <trkpt lat="48.67285" lon="1.7282">
        <ele>143.4</ele>
        <time>2022-04-19T09:12:37Z</time>
      </trkpt>
      <trkpt lat="48.67279" lon="1.7283">
        <ele>143.8</ele>
        <time>2022-04-19T09:12:47Z</time>
      </trkpt>
      <trkpt lat="48.67271" lon="1.72839">
        <ele>144.6</ele>
        <time>2022-04-19T09:12:56Z</time>
      </trkpt>
      <trkpt lat="48.67263" lon="1.72848">
        <ele>145.3</ele>
        <time>2022-04-19T09:13:04Z</time>
      </trkpt>
      <trkpt lat="48.67253" lon="1.72852">
        <ele>145.6</ele>
        <time>2022-04-19T09:13:11Z</time>
      </trkpt>
      <trkpt lat="48.67245" lon="1.72856">
        <ele>145.8</ele>
        <time>2022-04-19T09:13:17Z</time>
      </trkpt>
      <trkpt lat="48.67236" lon="1.72862">
        <ele>146.1</ele>
        <time>2022-04-19T09:13:24Z</time>
      </trkpt>
      <trkpt lat="48.67227" lon="1.72868">
        <ele>146.6</ele>
        <time>2022-04-19T09:13:35Z</time>
      </trkpt>
      <trkpt lat="48.67218" lon="1.7287">
        <ele>146.8</ele>
        <time>2022-04-19T09:13:42Z</time>
      </trkpt>
      <trkpt lat="48.67208" lon="1.72871">
        <ele>146.6</ele>
        <time>2022-04-19T09:13:51Z</time>
      </trkpt>
      <trkpt lat="48.67199" lon="1.72876">
        <ele>146.7</ele>
        <time>2022-04-19T09:13:57Z</time>
      </trkpt>
      <trkpt lat="48.67189" lon="1.72879">
        <ele>146.8</ele>
        <time>2022-04-19T09:14:04Z</time>
      </trkpt>
      <trkpt lat="48.67179" lon="1.72881">
        <ele>146.7</ele>
        <time>2022-04-19T09:14:10Z</time>
      </trkpt>
      <trkpt lat="48.6717" lon="1.72885">
        <ele>146.8</ele>
        <time>2022-04-19T09:14:15Z</time>
      </trkpt>
      <trkpt lat="48.67161" lon="1.72888">
        <ele>146.7</ele>
        <time>2022-04-19T09:14:21Z</time>
      </trkpt>
      <trkpt lat="48.6715" lon="1.7289">
        <ele>146.5</ele>
        <time>2022-04-19T09:14:27Z</time>
      </trkpt>
      <trkpt lat="48.6714" lon="1.72898">
        <ele>146.7</ele>
        <time>2022-04-19T09:14:35Z</time>
      </trkpt>
      <trkpt lat="48.67136" lon="1.72911">
        <ele>147.5</ele>
        <time>2022-04-19T09:14:41Z</time>
      </trkpt>
      <trkpt lat="48.6714" lon="1.72924">
        <ele>148.3</ele>
        <time>2022-04-19T09:14:52Z</time>
      </trkpt>
      <trkpt lat="48.67145" lon="1.72936">
        <ele>149.1</ele>
        <time>2022-04-19T09:15:06Z</time>
      </trkpt>
      <trkpt lat="48.67152" lon="1.72946">
        <ele>150</ele>
        <time>2022-04-19T09:15:16Z</time>
      </trkpt>
      <trkpt lat="48.67158" lon="1.72958">
        <ele>151</ele>
        <time>2022-04-19T09:15:25Z</time>
      </trkpt>
      <trkpt lat="48.67162" lon="1.72971">
        <ele>152.3</ele>
        <time>2022-04-19T09:15:33Z</time>
      </trkpt>
      <trkpt lat="48.67165" lon="1.72987">
        <ele>153.3</ele>
        <time>2022-04-19T09:15:41Z</time>
      </trkpt>
      <trkpt lat="48.67167" lon="1.73001">
        <ele>154.1</ele>
        <time>2022-04-19T09:15:50Z</time>
      </trkpt>
      <trkpt lat="48.67171" lon="1.73016">
        <ele>154.2</ele>
        <time>2022-04-19T09:15:58Z</time>
      </trkpt>
      <trkpt lat="48.67175" lon="1.73029">
        <ele>154.8</ele>
        <time>2022-04-19T09:16:07Z</time>
      </trkpt>
      <trkpt lat="48.67181" lon="1.73041">
        <ele>155.1</ele>
        <time>2022-04-19T09:16:15Z</time>
      </trkpt>
      <trkpt lat="48.67186" lon="1.73053">
        <ele>155.3</ele>
        <time>2022-04-19T09:16:21Z</time>
      </trkpt>
      <trkpt lat="48.67192" lon="1.73063">
        <ele>156</ele>
        <time>2022-04-19T09:16:27Z</time>
      </trkpt>
      <trkpt lat="48.67199" lon="1.73074">
        <ele>157</ele>
        <time>2022-04-19T09:16:34Z</time>
      </trkpt>
      <trkpt lat="48.67205" lon="1.73084">
        <ele>158.1</ele>
        <time>2022-04-19T09:16:40Z</time>
      </trkpt>
      <trkpt lat="48.67212" lon="1.73094">
        <ele>159.1</ele>
        <time>2022-04-19T09:16:46Z</time>
      </trkpt>
      <trkpt lat="48.67218" lon="1.73105">
        <ele>159.6</ele>
        <time>2022-04-19T09:16:53Z</time>
      </trkpt>
      <trkpt lat="48.67226" lon="1.73113">
        <ele>160.3</ele>
        <time>2022-04-19T09:17:03Z</time>
      </trkpt>
      <trkpt lat="48.67233" lon="1.73122">
        <ele>160.4</ele>
        <time>2022-04-19T09:17:11Z</time>
      </trkpt>
      <trkpt lat="48.67242" lon="1.73131">
        <ele>160.6</ele>
        <time>2022-04-19T09:17:18Z</time>
      </trkpt>
      <trkpt lat="48.6725" lon="1.73141">
        <ele>160.8</ele>
        <time>2022-04-19T09:17:25Z</time>
      </trkpt>
      <trkpt lat="48.67259" lon="1.73147">
        <ele>161.1</ele>
        <time>2022-04-19T09:17:32Z</time>
      </trkpt>
      <trkpt lat="48.67269" lon="1.7315">
        <ele>161.8</ele>
        <time>2022-04-19T09:17:41Z</time>
      </trkpt>
      <trkpt lat="48.67279" lon="1.73152">
        <ele>162.6</ele>
        <time>2022-04-19T09:17:49Z</time>
      </trkpt>
      <trkpt lat="48.67288" lon="1.73151">
        <ele>163.3</ele>
        <time>2022-04-19T09:17:59Z</time>
      </trkpt>
      <trkpt lat="48.67298" lon="1.73149">
        <ele>164.1</ele>
        <time>2022-04-19T09:18:07Z</time>
      </trkpt>
      <trkpt lat="48.67306" lon="1.73146">
        <ele>164.8</ele>
        <time>2022-04-19T09:18:15Z</time>
      </trkpt>
      <trkpt lat="48.67314" lon="1.7314">
        <ele>165.3</ele>
        <time>2022-04-19T09:18:21Z</time>
      </trkpt>
      <trkpt lat="48.67323" lon="1.73135">
        <ele>165.6</ele>
        <time>2022-04-19T09:18:27Z</time>
      </trkpt>
      <trkpt lat="48.67332" lon="1.73133">
        <ele>166</ele>
        <time>2022-04-19T09:18:34Z</time>
      </trkpt>
      <trkpt lat="48.67341" lon="1.73132">
        <ele>166.3</ele>
        <time>2022-04-19T09:18:41Z</time>
      </trkpt>
      <trkpt lat="48.67351" lon="1.73132">
        <ele>166.7</ele>
        <time>2022-04-19T09:18:49Z</time>
      </trkpt>
      <trkpt lat="48.67361" lon="1.73135">
        <ele>167</ele>
        <time>2022-04-19T09:18:56Z</time>
      </trkpt>
      <trkpt lat="48.67371" lon="1.7314">
        <ele>167.3</ele>
        <time>2022-04-19T09:19:04Z</time>
      </trkpt>
      <trkpt lat="48.6738" lon="1.73144">
        <ele>167.7</ele>
        <time>2022-04-19T09:19:11Z</time>
      </trkpt>
      <trkpt lat="48.67389" lon="1.7315">
        <ele>168</ele>
        <time>2022-04-19T09:19:18Z</time>
      </trkpt>
      <trkpt lat="48.67398" lon="1.73156">
        <ele>168</ele>
        <time>2022-04-19T09:19:25Z</time>
      </trkpt>
      <trkpt lat="48.67407" lon="1.73162">
        <ele>168</ele>
        <time>2022-04-19T09:19:33Z</time>
      </trkpt>
      <trkpt lat="48.67415" lon="1.73171">
        <ele>168</ele>
        <time>2022-04-19T09:19:41Z</time>
      </trkpt>
      <trkpt lat="48.67424" lon="1.73179">
        <ele>167.9</ele>
        <time>2022-04-19T09:19:48Z</time>
      </trkpt>
      <trkpt lat="48.67433" lon="1.73185">
        <ele>167.6</ele>
        <time>2022-04-19T09:19:56Z</time>
      </trkpt>
      <trkpt lat="48.6744" lon="1.73194">
        <ele>167.2</ele>
        <time>2022-04-19T09:20:02Z</time>
      </trkpt>
      <trkpt lat="48.6745" lon="1.732">
        <ele>167</ele>
        <time>2022-04-19T09:20:09Z</time>
      </trkpt>
      <trkpt lat="48.67459" lon="1.73203">
        <ele>167</ele>
        <time>2022-04-19T09:20:16Z</time>
      </trkpt>
      <trkpt lat="48.67469" lon="1.73209">
        <ele>167</ele>
        <time>2022-04-19T09:20:22Z</time>
      </trkpt>
      <trkpt lat="48.67479" lon="1.73215">
        <ele>167.2</ele>
        <time>2022-04-19T09:20:29Z</time>
      </trkpt>
      <trkpt lat="48.67487" lon="1.73222">
        <ele>167.5</ele>
        <time>2022-04-19T09:20:36Z</time>
      </trkpt>
      <trkpt lat="48.67495" lon="1.73229">
        <ele>167.8</ele>
        <time>2022-04-19T09:20:42Z</time>
      </trkpt>
      <trkpt lat="48.67501" lon="1.73239">
        <ele>168</ele>
        <time>2022-04-19T09:20:49Z</time>
      </trkpt>
      <trkpt lat="48.6751" lon="1.73248">
        <ele>168</ele>
        <time>2022-04-19T09:20:55Z</time>
      </trkpt>
      <trkpt lat="48.67519" lon="1.73256">
        <ele>168</ele>
        <time>2022-04-19T09:21:01Z</time>
      </trkpt>
      <trkpt lat="48.67526" lon="1.73266">
        <ele>168</ele>
        <time>2022-04-19T09:21:07Z</time>
      </trkpt>
      <trkpt lat="48.67533" lon="1.73276">
        <ele>168</ele>
        <time>2022-04-19T09:21:14Z</time>
      </trkpt>
      <trkpt lat="48.6754" lon="1.73286">
        <ele>167.7</ele>
        <time>2022-04-19T09:21:22Z</time>
      </trkpt>
      <trkpt lat="48.67549" lon="1.73295">
        <ele>167.4</ele>
        <time>2022-04-19T09:21:29Z</time>
      </trkpt>
      <trkpt lat="48.67557" lon="1.73305">
        <ele>167.1</ele>
        <time>2022-04-19T09:21:36Z</time>
      </trkpt>
      <trkpt lat="48.67566" lon="1.73314">
        <ele>167.5</ele>
        <time>2022-04-19T09:21:43Z</time>
      </trkpt>
      <trkpt lat="48.67574" lon="1.73319">
        <ele>167.9</ele>
        <time>2022-04-19T09:21:49Z</time>
      </trkpt>
      <trkpt lat="48.67585" lon="1.73322">
        <ele>168.4</ele>
        <time>2022-04-19T09:21:55Z</time>
      </trkpt>
      <trkpt lat="48.67594" lon="1.73322">
        <ele>168.6</ele>
        <time>2022-04-19T09:21:59Z</time>
      </trkpt>
      <trkpt lat="48.67604" lon="1.7332">
        <ele>168.9</ele>
        <time>2022-04-19T09:22:06Z</time>
      </trkpt>
      <trkpt lat="48.67613" lon="1.73318">
        <ele>169.1</ele>
        <time>2022-04-19T09:22:12Z</time>
      </trkpt>
      <trkpt lat="48.67623" lon="1.7332">
        <ele>169.4</ele>
        <time>2022-04-19T09:22:20Z</time>
      </trkpt>
      <trkpt lat="48.67632" lon="1.73323">
        <ele>169.8</ele>
        <time>2022-04-19T09:22:27Z</time>
      </trkpt>
      <trkpt lat="48.67642" lon="1.73324">
        <ele>170</ele>
        <time>2022-04-19T09:22:35Z</time>
      </trkpt>
      <trkpt lat="48.67652" lon="1.73326">
        <ele>170</ele>
        <time>2022-04-19T09:22:42Z</time>
      </trkpt>
      <trkpt lat="48.67661" lon="1.73328">
        <ele>170</ele>
        <time>2022-04-19T09:22:48Z</time>
      </trkpt>
      <trkpt lat="48.67671" lon="1.7333">
        <ele>170</ele>
        <time>2022-04-19T09:22:54Z</time>
      </trkpt>
      <trkpt lat="48.67681" lon="1.73333">
        <ele>170</ele>
        <time>2022-04-19T09:23:02Z</time>
      </trkpt>
      <trkpt lat="48.6769" lon="1.73337">
        <ele>170</ele>
        <time>2022-04-19T09:23:11Z</time>
      </trkpt>
      <trkpt lat="48.67699" lon="1.7334">
        <ele>170</ele>
        <time>2022-04-19T09:23:20Z</time>
      </trkpt>
      <trkpt lat="48.67709" lon="1.73342">
        <ele>170</ele>
        <time>2022-04-19T09:23:29Z</time>
      </trkpt>
      <trkpt lat="48.67718" lon="1.73346">
        <ele>170</ele>
        <time>2022-04-19T09:23:36Z</time>
      </trkpt>
      <trkpt lat="48.67726" lon="1.73355">
        <ele>170</ele>
        <time>2022-04-19T09:23:42Z</time>
      </trkpt>
      <trkpt lat="48.6773" lon="1.73368">
        <ele>170</ele>
        <time>2022-04-19T09:23:48Z</time>
      </trkpt>
      <trkpt lat="48.67733" lon="1.73383">
        <ele>170</ele>
        <time>2022-04-19T09:23:55Z</time>
      </trkpt>
      <trkpt lat="48.67735" lon="1.73397">
        <ele>170</ele>
        <time>2022-04-19T09:24:01Z</time>
      </trkpt>
      <trkpt lat="48.67738" lon="1.73412">
        <ele>170</ele>
        <time>2022-04-19T09:24:08Z</time>
      </trkpt>
      <trkpt lat="48.6774" lon="1.73426">
        <ele>170</ele>
        <time>2022-04-19T09:24:16Z</time>
      </trkpt>
      <trkpt lat="48.6774" lon="1.7344">
        <ele>170</ele>
        <time>2022-04-19T09:24:24Z</time>
      </trkpt>
      <trkpt lat="48.67739" lon="1.73454">
        <ele>170</ele>
        <time>2022-04-19T09:26:29Z</time>
      </trkpt>
      <trkpt lat="48.6773" lon="1.73459">
        <ele>170</ele>
        <time>2022-04-19T09:26:37Z</time>
      </trkpt>
      <trkpt lat="48.67722" lon="1.73465">
        <ele>170</ele>
        <time>2022-04-19T09:26:48Z</time>
      </trkpt>
      <trkpt lat="48.67713" lon="1.73471">
        <ele>170</ele>
        <time>2022-04-19T09:26:57Z</time>
      </trkpt>
      <trkpt lat="48.67703" lon="1.73474">
        <ele>170</ele>
        <time>2022-04-19T09:27:04Z</time>
      </trkpt>
      <trkpt lat="48.67694" lon="1.73479">
        <ele>170</ele>
        <time>2022-04-19T09:27:11Z</time>
      </trkpt>
      <trkpt lat="48.67686" lon="1.73485">
        <ele>169.7</ele>
        <time>2022-04-19T09:27:18Z</time>
      </trkpt>
      <trkpt lat="48.67678" lon="1.73492">
        <ele>169.4</ele>
        <time>2022-04-19T09:27:25Z</time>
      </trkpt>
      <trkpt lat="48.67669" lon="1.73498">
        <ele>169.1</ele>
        <time>2022-04-19T09:27:32Z</time>
      </trkpt>
      <trkpt lat="48.67659" lon="1.73503">
        <ele>168.7</ele>
        <time>2022-04-19T09:27:39Z</time>
      </trkpt>
      <trkpt lat="48.6765" lon="1.73505">
        <ele>168.3</ele>
        <time>2022-04-19T09:27:46Z</time>
      </trkpt>
      <trkpt lat="48.67642" lon="1.73512">
        <ele>167.7</ele>
        <time>2022-04-19T09:27:53Z</time>
      </trkpt>
      <trkpt lat="48.67633" lon="1.73517">
        <ele>167.1</ele>
        <time>2022-04-19T09:28:00Z</time>
      </trkpt>
      <trkpt lat="48.67623" lon="1.73521">
        <ele>166.5</ele>
        <time>2022-04-19T09:28:08Z</time>
      </trkpt>
      <trkpt lat="48.67615" lon="1.73526">
        <ele>166.1</ele>
        <time>2022-04-19T09:28:15Z</time>
      </trkpt>
      <trkpt lat="48.67606" lon="1.73532">
        <ele>165</ele>
        <time>2022-04-19T09:28:22Z</time>
      </trkpt>
      <trkpt lat="48.67598" lon="1.73539">
        <ele>163.4</ele>
        <time>2022-04-19T09:28:27Z</time>
      </trkpt>
      <trkpt lat="48.67589" lon="1.73545">
        <ele>161.8</ele>
        <time>2022-04-19T09:28:35Z</time>
      </trkpt>
      <trkpt lat="48.67579" lon="1.73549">
        <ele>160.2</ele>
        <time>2022-04-19T09:28:42Z</time>
      </trkpt>
      <trkpt lat="48.67569" lon="1.73553">
        <ele>158.9</ele>
        <time>2022-04-19T09:28:48Z</time>
      </trkpt>
      <trkpt lat="48.6756" lon="1.73556">
        <ele>157.7</ele>
        <time>2022-04-19T09:28:55Z</time>
      </trkpt>
      <trkpt lat="48.67552" lon="1.73561">
        <ele>157.2</ele>
        <time>2022-04-19T09:29:03Z</time>
      </trkpt>
      <trkpt lat="48.67543" lon="1.73566">
        <ele>156.8</ele>
        <time>2022-04-19T09:29:10Z</time>
      </trkpt>
      <trkpt lat="48.67533" lon="1.73568">
        <ele>156</ele>
        <time>2022-04-19T09:29:21Z</time>
      </trkpt>
      <trkpt lat="48.67523" lon="1.73572">
        <ele>154.7</ele>
        <time>2022-04-19T09:29:30Z</time>
      </trkpt>
      <trkpt lat="48.67515" lon="1.73578">
        <ele>153.3</ele>
        <time>2022-04-19T09:29:41Z</time>
      </trkpt>
      <trkpt lat="48.67506" lon="1.73583">
        <ele>151.4</ele>
        <time>2022-04-19T09:29:50Z</time>
      </trkpt>
      <trkpt lat="48.67499" lon="1.73593">
        <ele>150.4</ele>
        <time>2022-04-19T09:30:00Z</time>
      </trkpt>
      <trkpt lat="48.6749" lon="1.73598">
        <ele>148.9</ele>
        <time>2022-04-19T09:30:07Z</time>
      </trkpt>
      <trkpt lat="48.67484" lon="1.73609">
        <ele>147.8</ele>
        <time>2022-04-19T09:30:14Z</time>
      </trkpt>
      <trkpt lat="48.67475" lon="1.7361">
        <ele>145.6</ele>
        <time>2022-04-19T09:30:23Z</time>
      </trkpt>
      <trkpt lat="48.67465" lon="1.73611">
        <ele>144.7</ele>
        <time>2022-04-19T09:30:36Z</time>
      </trkpt>
      <trkpt lat="48.67455" lon="1.73615">
        <ele>144.3</ele>
        <time>2022-04-19T09:30:43Z</time>
      </trkpt>
      <trkpt lat="48.67446" lon="1.73621">
        <ele>143.7</ele>
        <time>2022-04-19T09:30:51Z</time>
      </trkpt>
      <trkpt lat="48.67437" lon="1.73628">
        <ele>143.6</ele>
        <time>2022-04-19T09:30:58Z</time>
      </trkpt>
      <trkpt lat="48.67428" lon="1.73634">
        <ele>143.4</ele>
        <time>2022-04-19T09:31:05Z</time>
      </trkpt>
      <trkpt lat="48.67418" lon="1.73637">
        <ele>143.2</ele>
        <time>2022-04-19T09:31:13Z</time>
      </trkpt>
      <trkpt lat="48.67408" lon="1.73638">
        <ele>143.1</ele>
        <time>2022-04-19T09:31:25Z</time>
      </trkpt>
      <trkpt lat="48.67399" lon="1.73638">
        <ele>143.1</ele>
        <time>2022-04-19T09:31:31Z</time>
      </trkpt>
      <trkpt lat="48.67389" lon="1.73635">
        <ele>143.6</ele>
        <time>2022-04-19T09:31:37Z</time>
      </trkpt>
      <trkpt lat="48.6738" lon="1.73634">
        <ele>143</ele>
        <time>2022-04-19T09:31:42Z</time>
      </trkpt>
      <trkpt lat="48.67371" lon="1.73628">
        <ele>142.8</ele>
        <time>2022-04-19T09:31:49Z</time>
      </trkpt>
      <trkpt lat="48.67363" lon="1.73624">
        <ele>142.2</ele>
        <time>2022-04-19T09:31:54Z</time>
      </trkpt>
      <trkpt lat="48.67355" lon="1.73618">
        <ele>141.7</ele>
        <time>2022-04-19T09:32:01Z</time>
      </trkpt>
      <trkpt lat="48.67346" lon="1.73607">
        <ele>141.1</ele>
        <time>2022-04-19T09:32:07Z</time>
      </trkpt>
      <trkpt lat="48.67337" lon="1.73614">
        <ele>139.5</ele>
        <time>2022-04-19T09:32:15Z</time>
      </trkpt>
      <trkpt lat="48.67331" lon="1.73626">
        <ele>138.9</ele>
        <time>2022-04-19T09:32:24Z</time>
      </trkpt>
      <trkpt lat="48.67326" lon="1.73638">
        <ele>138.5</ele>
        <time>2022-04-19T09:32:33Z</time>
      </trkpt>
      <trkpt lat="48.67323" lon="1.73652">
        <ele>138.1</ele>
        <time>2022-04-19T09:32:44Z</time>
      </trkpt>
      <trkpt lat="48.6732" lon="1.73665">
        <ele>138</ele>
        <time>2022-04-19T09:32:52Z</time>
      </trkpt>
      <trkpt lat="48.67318" lon="1.73679">
        <ele>138.2</ele>
        <time>2022-04-19T09:33:00Z</time>
      </trkpt>
      <trkpt lat="48.67314" lon="1.73693">
        <ele>138.3</ele>
        <time>2022-04-19T09:33:08Z</time>
      </trkpt>
      <trkpt lat="48.67312" lon="1.73708">
        <ele>138.5</ele>
        <time>2022-04-19T09:33:17Z</time>
      </trkpt>
      <trkpt lat="48.67307" lon="1.7372">
        <ele>138.9</ele>
        <time>2022-04-19T09:33:24Z</time>
      </trkpt>
      <trkpt lat="48.67304" lon="1.73733">
        <ele>138.6</ele>
        <time>2022-04-19T09:33:31Z</time>
      </trkpt>
      <trkpt lat="48.673" lon="1.73748">
        <ele>138.2</ele>
        <time>2022-04-19T09:33:38Z</time>
      </trkpt>
      <trkpt lat="48.67293" lon="1.73758">
        <ele>138.6</ele>
        <time>2022-04-19T09:33:46Z</time>
      </trkpt>
      <trkpt lat="48.67288" lon="1.73772">
        <ele>138.9</ele>
        <time>2022-04-19T09:33:55Z</time>
      </trkpt>
      <trkpt lat="48.67284" lon="1.73785">
        <ele>139</ele>
        <time>2022-04-19T09:34:03Z</time>
      </trkpt>
      <trkpt lat="48.67278" lon="1.73797">
        <ele>139</ele>
        <time>2022-04-19T09:34:12Z</time>
      </trkpt>
      <trkpt lat="48.67269" lon="1.73797">
        <ele>139.5</ele>
        <time>2022-04-19T09:34:22Z</time>
      </trkpt>
      <trkpt lat="48.67261" lon="1.73788">
        <ele>139.8</ele>
        <time>2022-04-19T09:34:32Z</time>
      </trkpt>
      <trkpt lat="48.67253" lon="1.7378">
        <ele>139.9</ele>
        <time>2022-04-19T09:34:41Z</time>
      </trkpt>
    </trkseg>
  </trk>
</gpx>